<?xml version="1.0" encoding="UTF-8" standalone="no" ?>
<gpx xmlns="http://www.topografix.com/GPX/1/1" xmlns:xsi="http://www.w3.org/2001/XMLSchema-instance" xsi:schemaLocation="http://www.topografix.com/GPX/1/1 http://www.topografix.com/GPX/1/1/gpx.xsd" version="1.1" creator="VisuGPX - https://www.visugpx.com">
  <metadata>
    <name>VTTN42K944MDNE</name>
  </metadata>
  <trk>
    <name><![CDATA[La Chapelle-de-Guinchay Cyclisme]]></name>
    <extensions>
      <line xmlns="http://www.topografix.com/GPX/gpx_style/0/2">
        <color>0000FF</color>
        <width>4</width>
      </line>
    </extensions>
    <trkseg>
      <trkpt lat="46.21444" lon="4.75503">
        <ele>192</ele>
        <time>2022-05-14T12:15:55.000Z</time>
      </trkpt>
      <trkpt lat="46.21444" lon="4.75503">
        <ele>192</ele>
        <time>2022-05-14T12:15:56.000Z</time>
      </trkpt>
      <trkpt lat="46.2144" lon="4.75505">
        <ele>192</ele>
        <time>2022-05-14T12:16:24.000Z</time>
      </trkpt>
      <trkpt lat="46.21438" lon="4.75502">
        <ele>192</ele>
        <time>2022-05-14T12:18:30.000Z</time>
      </trkpt>
      <trkpt lat="46.21429" lon="4.75496">
        <ele>192</ele>
        <time>2022-05-14T12:18:45.000Z</time>
      </trkpt>
      <trkpt lat="46.21423" lon="4.75498">
        <ele>191.60000610352</ele>
        <time>2022-05-14T12:18:59.000Z</time>
      </trkpt>
      <trkpt lat="46.2141" lon="4.75518">
        <ele>190</ele>
        <time>2022-05-14T12:19:05.000Z</time>
      </trkpt>
      <trkpt lat="46.21407" lon="4.75523">
        <ele>190</ele>
        <time>2022-05-14T12:19:06.000Z</time>
      </trkpt>
      <trkpt lat="46.2136" lon="4.75607">
        <ele>188.80000305176</ele>
        <time>2022-05-14T12:19:20.000Z</time>
      </trkpt>
      <trkpt lat="46.21348" lon="4.75642">
        <ele>189.80000305176</ele>
        <time>2022-05-14T12:19:25.000Z</time>
      </trkpt>
      <trkpt lat="46.21335" lon="4.75681">
        <ele>190.60000610352</ele>
        <time>2022-05-14T12:19:33.000Z</time>
      </trkpt>
      <trkpt lat="46.21342" lon="4.75694">
        <ele>191.19999694824</ele>
        <time>2022-05-14T12:19:37.000Z</time>
      </trkpt>
      <trkpt lat="46.21384" lon="4.75729">
        <ele>193</ele>
        <time>2022-05-14T12:19:48.000Z</time>
      </trkpt>
      <trkpt lat="46.21386" lon="4.75759">
        <ele>193.19999694824</ele>
        <time>2022-05-14T12:19:53.000Z</time>
      </trkpt>
      <trkpt lat="46.21383" lon="4.75772">
        <ele>193.60000610352</ele>
        <time>2022-05-14T12:19:55.000Z</time>
      </trkpt>
      <trkpt lat="46.21375" lon="4.75815">
        <ele>193.80000305176</ele>
        <time>2022-05-14T12:20:01.000Z</time>
      </trkpt>
      <trkpt lat="46.21377" lon="4.7586">
        <ele>193.60000610352</ele>
        <time>2022-05-14T12:20:07.000Z</time>
      </trkpt>
      <trkpt lat="46.21374" lon="4.75912">
        <ele>193.19999694824</ele>
        <time>2022-05-14T12:20:15.000Z</time>
      </trkpt>
      <trkpt lat="46.21369" lon="4.7598">
        <ele>193</ele>
        <time>2022-05-14T12:20:26.000Z</time>
      </trkpt>
      <trkpt lat="46.21385" lon="4.76079">
        <ele>194</ele>
        <time>2022-05-14T12:20:39.000Z</time>
      </trkpt>
      <trkpt lat="46.21395" lon="4.76108">
        <ele>194</ele>
        <time>2022-05-14T12:20:43.000Z</time>
      </trkpt>
      <trkpt lat="46.21448" lon="4.76191">
        <ele>195.60000610352</ele>
        <time>2022-05-14T12:20:57.000Z</time>
      </trkpt>
      <trkpt lat="46.2152" lon="4.76268">
        <ele>199</ele>
        <time>2022-05-14T12:21:15.000Z</time>
      </trkpt>
      <trkpt lat="46.21554" lon="4.76303">
        <ele>200.19999694824</ele>
        <time>2022-05-14T12:21:24.000Z</time>
      </trkpt>
      <trkpt lat="46.21591" lon="4.76402">
        <ele>201.80000305176</ele>
        <time>2022-05-14T12:21:42.000Z</time>
      </trkpt>
      <trkpt lat="46.21615" lon="4.76474">
        <ele>203.80000305176</ele>
        <time>2022-05-14T12:21:55.000Z</time>
      </trkpt>
      <trkpt lat="46.21636" lon="4.76533">
        <ele>206.19999694824</ele>
        <time>2022-05-14T12:22:06.000Z</time>
      </trkpt>
      <trkpt lat="46.21649" lon="4.7657">
        <ele>207.60000610352</ele>
        <time>2022-05-14T12:22:13.000Z</time>
      </trkpt>
      <trkpt lat="46.21679" lon="4.76663">
        <ele>209.80000305176</ele>
        <time>2022-05-14T12:22:31.000Z</time>
      </trkpt>
      <trkpt lat="46.21682" lon="4.76671">
        <ele>209.80000305176</ele>
        <time>2022-05-14T12:22:33.000Z</time>
      </trkpt>
      <trkpt lat="46.21685" lon="4.76673">
        <ele>210</ele>
        <time>2022-05-14T12:22:34.000Z</time>
      </trkpt>
      <trkpt lat="46.21688" lon="4.76672">
        <ele>210</ele>
        <time>2022-05-14T12:22:35.000Z</time>
      </trkpt>
      <trkpt lat="46.21692" lon="4.76669">
        <ele>210</ele>
        <time>2022-05-14T12:22:36.000Z</time>
      </trkpt>
      <trkpt lat="46.21698" lon="4.7666">
        <ele>210</ele>
        <time>2022-05-14T12:22:38.000Z</time>
      </trkpt>
      <trkpt lat="46.21709" lon="4.76639">
        <ele>211</ele>
        <time>2022-05-14T12:22:42.000Z</time>
      </trkpt>
      <trkpt lat="46.21732" lon="4.76636">
        <ele>210.39999389648</ele>
        <time>2022-05-14T12:22:50.000Z</time>
      </trkpt>
      <trkpt lat="46.21753" lon="4.76665">
        <ele>209.60000610352</ele>
        <time>2022-05-14T12:22:57.000Z</time>
      </trkpt>
      <trkpt lat="46.21766" lon="4.76685">
        <ele>209.19999694824</ele>
        <time>2022-05-14T12:23:01.000Z</time>
      </trkpt>
      <trkpt lat="46.21786" lon="4.76713">
        <ele>209.60000610352</ele>
        <time>2022-05-14T12:23:07.000Z</time>
      </trkpt>
      <trkpt lat="46.21797" lon="4.76726">
        <ele>210</ele>
        <time>2022-05-14T12:23:10.000Z</time>
      </trkpt>
      <trkpt lat="46.21833" lon="4.76774">
        <ele>211.19999694824</ele>
        <time>2022-05-14T12:23:21.000Z</time>
      </trkpt>
      <trkpt lat="46.21881" lon="4.76876">
        <ele>211.80000305176</ele>
        <time>2022-05-14T12:23:39.000Z</time>
      </trkpt>
      <trkpt lat="46.21904" lon="4.76926">
        <ele>210</ele>
        <time>2022-05-14T12:23:48.000Z</time>
      </trkpt>
      <trkpt lat="46.21923" lon="4.76933">
        <ele>210.60000610352</ele>
        <time>2022-05-14T12:23:56.000Z</time>
      </trkpt>
      <trkpt lat="46.2193" lon="4.7692">
        <ele>211.60000610352</ele>
        <time>2022-05-14T12:23:59.000Z</time>
      </trkpt>
      <trkpt lat="46.21956" lon="4.76855">
        <ele>213</ele>
        <time>2022-05-14T12:24:11.000Z</time>
      </trkpt>
      <trkpt lat="46.2198" lon="4.76847">
        <ele>213.39999389648</ele>
        <time>2022-05-14T12:24:18.000Z</time>
      </trkpt>
      <trkpt lat="46.21984" lon="4.76838">
        <ele>213.80000305176</ele>
        <time>2022-05-14T12:24:20.000Z</time>
      </trkpt>
      <trkpt lat="46.21994" lon="4.76809">
        <ele>214</ele>
        <time>2022-05-14T12:24:25.000Z</time>
      </trkpt>
      <trkpt lat="46.22007" lon="4.76768">
        <ele>213</ele>
        <time>2022-05-14T12:24:32.000Z</time>
      </trkpt>
      <trkpt lat="46.2201" lon="4.76722">
        <ele>214.19999694824</ele>
        <time>2022-05-14T12:24:40.000Z</time>
      </trkpt>
      <trkpt lat="46.22021" lon="4.76689">
        <ele>216.39999389648</ele>
        <time>2022-05-14T12:24:46.000Z</time>
      </trkpt>
      <trkpt lat="46.22034" lon="4.76665">
        <ele>216.39999389648</ele>
        <time>2022-05-14T12:24:51.000Z</time>
      </trkpt>
      <trkpt lat="46.22042" lon="4.76644">
        <ele>217</ele>
        <time>2022-05-14T12:24:55.000Z</time>
      </trkpt>
      <trkpt lat="46.22064" lon="4.76642">
        <ele>216.39999389648</ele>
        <time>2022-05-14T12:25:03.000Z</time>
      </trkpt>
      <trkpt lat="46.22142" lon="4.7669">
        <ele>216.60000610352</ele>
        <time>2022-05-14T12:25:21.000Z</time>
      </trkpt>
      <trkpt lat="46.22165" lon="4.76705">
        <ele>215.80000305176</ele>
        <time>2022-05-14T12:25:27.000Z</time>
      </trkpt>
      <trkpt lat="46.2221" lon="4.76732">
        <ele>216</ele>
        <time>2022-05-14T12:25:38.000Z</time>
      </trkpt>
      <trkpt lat="46.22232" lon="4.76744">
        <ele>216.60000610352</ele>
        <time>2022-05-14T12:25:43.000Z</time>
      </trkpt>
      <trkpt lat="46.22289" lon="4.7678">
        <ele>217</ele>
        <time>2022-05-14T12:25:57.000Z</time>
      </trkpt>
      <trkpt lat="46.22309" lon="4.76786">
        <ele>217</ele>
        <time>2022-05-14T12:26:03.000Z</time>
      </trkpt>
      <trkpt lat="46.22318" lon="4.76768">
        <ele>217.60000610352</ele>
        <time>2022-05-14T12:26:08.000Z</time>
      </trkpt>
      <trkpt lat="46.22354" lon="4.76641">
        <ele>219.39999389648</ele>
        <time>2022-05-14T12:26:29.000Z</time>
      </trkpt>
      <trkpt lat="46.2236" lon="4.7662">
        <ele>221.19999694824</ele>
        <time>2022-05-14T12:26:33.000Z</time>
      </trkpt>
      <trkpt lat="46.22387" lon="4.76621">
        <ele>222.19999694824</ele>
        <time>2022-05-14T12:26:41.000Z</time>
      </trkpt>
      <trkpt lat="46.22393" lon="4.76613">
        <ele>222.60000610352</ele>
        <time>2022-05-14T12:26:43.000Z</time>
      </trkpt>
      <trkpt lat="46.22396" lon="4.76605">
        <ele>223</ele>
        <time>2022-05-14T12:26:45.000Z</time>
      </trkpt>
      <trkpt lat="46.22409" lon="4.76609">
        <ele>223.39999389648</ele>
        <time>2022-05-14T12:26:49.000Z</time>
      </trkpt>
      <trkpt lat="46.22492" lon="4.76654">
        <ele>222.39999389648</ele>
        <time>2022-05-14T12:27:08.000Z</time>
      </trkpt>
      <trkpt lat="46.2255" lon="4.76684">
        <ele>220.80000305176</ele>
        <time>2022-05-14T12:27:21.000Z</time>
      </trkpt>
      <trkpt lat="46.226" lon="4.76713">
        <ele>220.60000610352</ele>
        <time>2022-05-14T12:27:32.000Z</time>
      </trkpt>
      <trkpt lat="46.22632" lon="4.76731">
        <ele>219</ele>
        <time>2022-05-14T12:27:40.000Z</time>
      </trkpt>
      <trkpt lat="46.22652" lon="4.7674">
        <ele>217.80000305176</ele>
        <time>2022-05-14T12:27:45.000Z</time>
      </trkpt>
      <trkpt lat="46.22667" lon="4.76746">
        <ele>217.39999389648</ele>
        <time>2022-05-14T12:27:49.000Z</time>
      </trkpt>
      <trkpt lat="46.22669" lon="4.76743">
        <ele>217.60000610352</ele>
        <time>2022-05-14T12:27:50.000Z</time>
      </trkpt>
      <trkpt lat="46.22671" lon="4.76738">
        <ele>217.60000610352</ele>
        <time>2022-05-14T12:27:51.000Z</time>
      </trkpt>
      <trkpt lat="46.22672" lon="4.76732">
        <ele>218</ele>
        <time>2022-05-14T12:27:52.000Z</time>
      </trkpt>
      <trkpt lat="46.22673" lon="4.76726">
        <ele>218.19999694824</ele>
        <time>2022-05-14T12:27:53.000Z</time>
      </trkpt>
      <trkpt lat="46.22688" lon="4.76616">
        <ele>222</ele>
        <time>2022-05-14T12:28:10.000Z</time>
      </trkpt>
      <trkpt lat="46.22694" lon="4.76563">
        <ele>223.80000305176</ele>
        <time>2022-05-14T12:28:18.000Z</time>
      </trkpt>
      <trkpt lat="46.22704" lon="4.76464">
        <ele>225.39999389648</ele>
        <time>2022-05-14T12:28:33.000Z</time>
      </trkpt>
      <trkpt lat="46.22717" lon="4.76362">
        <ele>227.19999694824</ele>
        <time>2022-05-14T12:28:50.000Z</time>
      </trkpt>
      <trkpt lat="46.22719" lon="4.76359">
        <ele>227.19999694824</ele>
        <time>2022-05-14T12:28:51.000Z</time>
      </trkpt>
      <trkpt lat="46.22721" lon="4.76357">
        <ele>227.19999694824</ele>
        <time>2022-05-14T12:28:52.000Z</time>
      </trkpt>
      <trkpt lat="46.22733" lon="4.76358">
        <ele>225.80000305176</ele>
        <time>2022-05-14T12:28:55.000Z</time>
      </trkpt>
      <trkpt lat="46.22764" lon="4.76372">
        <ele>222.39999389648</ele>
        <time>2022-05-14T12:29:01.000Z</time>
      </trkpt>
      <trkpt lat="46.22775" lon="4.7638">
        <ele>222.19999694824</ele>
        <time>2022-05-14T12:29:03.000Z</time>
      </trkpt>
      <trkpt lat="46.22805" lon="4.76412">
        <ele>224</ele>
        <time>2022-05-14T12:29:10.000Z</time>
      </trkpt>
      <trkpt lat="46.22823" lon="4.76427">
        <ele>225.80000305176</ele>
        <time>2022-05-14T12:29:14.000Z</time>
      </trkpt>
      <trkpt lat="46.22851" lon="4.76429">
        <ele>226.80000305176</ele>
        <time>2022-05-14T12:29:20.000Z</time>
      </trkpt>
      <trkpt lat="46.22905" lon="4.764">
        <ele>230.80000305176</ele>
        <time>2022-05-14T12:29:32.000Z</time>
      </trkpt>
      <trkpt lat="46.22943" lon="4.76378">
        <ele>232.80000305176</ele>
        <time>2022-05-14T12:29:41.000Z</time>
      </trkpt>
      <trkpt lat="46.23008" lon="4.7634">
        <ele>235.60000610352</ele>
        <time>2022-05-14T12:29:57.000Z</time>
      </trkpt>
      <trkpt lat="46.23027" lon="4.76328">
        <ele>237.19999694824</ele>
        <time>2022-05-14T12:30:02.000Z</time>
      </trkpt>
      <trkpt lat="46.23035" lon="4.76324">
        <ele>237.80000305176</ele>
        <time>2022-05-14T12:30:04.000Z</time>
      </trkpt>
      <trkpt lat="46.23048" lon="4.76319">
        <ele>238.60000610352</ele>
        <time>2022-05-14T12:30:07.000Z</time>
      </trkpt>
      <trkpt lat="46.23089" lon="4.76299">
        <ele>240.60000610352</ele>
        <time>2022-05-14T12:30:18.000Z</time>
      </trkpt>
      <trkpt lat="46.23165" lon="4.76299">
        <ele>243.19999694824</ele>
        <time>2022-05-14T12:30:36.000Z</time>
      </trkpt>
      <trkpt lat="46.23241" lon="4.76299">
        <ele>244.39999389648</ele>
        <time>2022-05-14T12:30:54.000Z</time>
      </trkpt>
      <trkpt lat="46.23317" lon="4.76299">
        <ele>248.39999389648</ele>
        <time>2022-05-14T12:31:13.000Z</time>
      </trkpt>
      <trkpt lat="46.23357" lon="4.76299">
        <ele>250.60000610352</ele>
        <time>2022-05-14T12:31:23.000Z</time>
      </trkpt>
      <trkpt lat="46.23423" lon="4.76297">
        <ele>250.19999694824</ele>
        <time>2022-05-14T12:31:39.000Z</time>
      </trkpt>
      <trkpt lat="46.23489" lon="4.76296">
        <ele>249.80000305176</ele>
        <time>2022-05-14T12:31:55.000Z</time>
      </trkpt>
      <trkpt lat="46.23527" lon="4.76296">
        <ele>249.39999389648</ele>
        <time>2022-05-14T12:32:06.000Z</time>
      </trkpt>
      <trkpt lat="46.23534" lon="4.76284">
        <ele>250.19999694824</ele>
        <time>2022-05-14T12:32:10.000Z</time>
      </trkpt>
      <trkpt lat="46.23554" lon="4.762">
        <ele>256.60000610352</ele>
        <time>2022-05-14T12:32:27.000Z</time>
      </trkpt>
      <trkpt lat="46.23566" lon="4.76158">
        <ele>257.39999389648</ele>
        <time>2022-05-14T12:32:38.000Z</time>
      </trkpt>
      <trkpt lat="46.23571" lon="4.76139">
        <ele>257.20001220703</ele>
        <time>2022-05-14T12:32:43.000Z</time>
      </trkpt>
      <trkpt lat="46.23574" lon="4.76129">
        <ele>257.60000610352</ele>
        <time>2022-05-14T12:32:46.000Z</time>
      </trkpt>
      <trkpt lat="46.23608" lon="4.7613">
        <ele>257.39999389648</ele>
        <time>2022-05-14T12:32:57.000Z</time>
      </trkpt>
      <trkpt lat="46.23652" lon="4.76133">
        <ele>255.80000305176</ele>
        <time>2022-05-14T12:33:09.000Z</time>
      </trkpt>
      <trkpt lat="46.23709" lon="4.7614">
        <ele>253.39999389648</ele>
        <time>2022-05-14T12:33:21.000Z</time>
      </trkpt>
      <trkpt lat="46.23726" lon="4.76142">
        <ele>252.39999389648</ele>
        <time>2022-05-14T12:33:24.000Z</time>
      </trkpt>
      <trkpt lat="46.23742" lon="4.76142">
        <ele>251.19999694824</ele>
        <time>2022-05-14T12:33:27.000Z</time>
      </trkpt>
      <trkpt lat="46.23752" lon="4.76143">
        <ele>251.19999694824</ele>
        <time>2022-05-14T12:33:30.000Z</time>
      </trkpt>
      <trkpt lat="46.23753" lon="4.76146">
        <ele>251</ele>
        <time>2022-05-14T12:33:31.000Z</time>
      </trkpt>
      <trkpt lat="46.23754" lon="4.76151">
        <ele>250.60000610352</ele>
        <time>2022-05-14T12:33:32.000Z</time>
      </trkpt>
      <trkpt lat="46.23747" lon="4.76175">
        <ele>249.80000305176</ele>
        <time>2022-05-14T12:33:36.000Z</time>
      </trkpt>
      <trkpt lat="46.23724" lon="4.7625">
        <ele>245.19999694824</ele>
        <time>2022-05-14T12:33:45.000Z</time>
      </trkpt>
      <trkpt lat="46.23712" lon="4.7629">
        <ele>242.80000305176</ele>
        <time>2022-05-14T12:33:50.000Z</time>
      </trkpt>
      <trkpt lat="46.23702" lon="4.76327">
        <ele>240.39999389648</ele>
        <time>2022-05-14T12:33:54.000Z</time>
      </trkpt>
      <trkpt lat="46.237" lon="4.76336">
        <ele>239.60000610352</ele>
        <time>2022-05-14T12:33:55.000Z</time>
      </trkpt>
      <trkpt lat="46.23694" lon="4.76353">
        <ele>238.60000610352</ele>
        <time>2022-05-14T12:33:57.000Z</time>
      </trkpt>
      <trkpt lat="46.23688" lon="4.76367">
        <ele>237.19999694824</ele>
        <time>2022-05-14T12:33:59.000Z</time>
      </trkpt>
      <trkpt lat="46.23696" lon="4.76381">
        <ele>236</ele>
        <time>2022-05-14T12:34:04.000Z</time>
      </trkpt>
      <trkpt lat="46.237" lon="4.76379">
        <ele>236.19999694824</ele>
        <time>2022-05-14T12:34:05.000Z</time>
      </trkpt>
      <trkpt lat="46.23764" lon="4.76349">
        <ele>235</ele>
        <time>2022-05-14T12:34:17.000Z</time>
      </trkpt>
      <trkpt lat="46.23769" lon="4.76346">
        <ele>234.80000305176</ele>
        <time>2022-05-14T12:34:18.000Z</time>
      </trkpt>
      <trkpt lat="46.23788" lon="4.76335">
        <ele>234.80000305176</ele>
        <time>2022-05-14T12:34:22.000Z</time>
      </trkpt>
      <trkpt lat="46.23814" lon="4.76323">
        <ele>234.80000305176</ele>
        <time>2022-05-14T12:34:27.000Z</time>
      </trkpt>
      <trkpt lat="46.23854" lon="4.76304">
        <ele>234.60000610352</ele>
        <time>2022-05-14T12:34:35.000Z</time>
      </trkpt>
      <trkpt lat="46.23877" lon="4.76294">
        <ele>234</ele>
        <time>2022-05-14T12:34:40.000Z</time>
      </trkpt>
      <trkpt lat="46.23903" lon="4.76282">
        <ele>233.39999389648</ele>
        <time>2022-05-14T12:34:46.000Z</time>
      </trkpt>
      <trkpt lat="46.23929" lon="4.76279">
        <ele>233.39999389648</ele>
        <time>2022-05-14T12:34:55.000Z</time>
      </trkpt>
      <trkpt lat="46.23935" lon="4.76288">
        <ele>232.80000305176</ele>
        <time>2022-05-14T12:34:57.000Z</time>
      </trkpt>
      <trkpt lat="46.23964" lon="4.76337">
        <ele>230.19999694824</ele>
        <time>2022-05-14T12:35:07.000Z</time>
      </trkpt>
      <trkpt lat="46.23975" lon="4.76351">
        <ele>229.19999694824</ele>
        <time>2022-05-14T12:35:11.000Z</time>
      </trkpt>
      <trkpt lat="46.23981" lon="4.76361">
        <ele>228.80000305176</ele>
        <time>2022-05-14T12:35:13.000Z</time>
      </trkpt>
      <trkpt lat="46.24027" lon="4.7643">
        <ele>225.39999389648</ele>
        <time>2022-05-14T12:35:24.000Z</time>
      </trkpt>
      <trkpt lat="46.24036" lon="4.76447">
        <ele>224</ele>
        <time>2022-05-14T12:35:28.000Z</time>
      </trkpt>
      <trkpt lat="46.24041" lon="4.76454">
        <ele>223.39999389648</ele>
        <time>2022-05-14T12:35:30.000Z</time>
      </trkpt>
      <trkpt lat="46.24045" lon="4.76458">
        <ele>223</ele>
        <time>2022-05-14T12:35:31.000Z</time>
      </trkpt>
      <trkpt lat="46.241" lon="4.76539">
        <ele>218.39999389648</ele>
        <time>2022-05-14T12:35:43.000Z</time>
      </trkpt>
      <trkpt lat="46.24115" lon="4.76562">
        <ele>216.80000305176</ele>
        <time>2022-05-14T12:35:46.000Z</time>
      </trkpt>
      <trkpt lat="46.24125" lon="4.76569">
        <ele>215.39999389648</ele>
        <time>2022-05-14T12:35:48.000Z</time>
      </trkpt>
      <trkpt lat="46.2416" lon="4.76572">
        <ele>212</ele>
        <time>2022-05-14T12:35:53.000Z</time>
      </trkpt>
      <trkpt lat="46.24218" lon="4.76601">
        <ele>210.60000610352</ele>
        <time>2022-05-14T12:36:02.000Z</time>
      </trkpt>
      <trkpt lat="46.24242" lon="4.76616">
        <ele>209</ele>
        <time>2022-05-14T12:36:06.000Z</time>
      </trkpt>
      <trkpt lat="46.2425" lon="4.7662">
        <ele>208.19999694824</ele>
        <time>2022-05-14T12:36:08.000Z</time>
      </trkpt>
      <trkpt lat="46.24271" lon="4.76606">
        <ele>206</ele>
        <time>2022-05-14T12:36:13.000Z</time>
      </trkpt>
      <trkpt lat="46.24283" lon="4.76587">
        <ele>205</ele>
        <time>2022-05-14T12:36:16.000Z</time>
      </trkpt>
      <trkpt lat="46.24304" lon="4.76574">
        <ele>203.19999694824</ele>
        <time>2022-05-14T12:36:21.000Z</time>
      </trkpt>
      <trkpt lat="46.24333" lon="4.76569">
        <ele>202</ele>
        <time>2022-05-14T12:36:27.000Z</time>
      </trkpt>
      <trkpt lat="46.24373" lon="4.7655">
        <ele>199.19999694824</ele>
        <time>2022-05-14T12:36:34.000Z</time>
      </trkpt>
      <trkpt lat="46.24392" lon="4.76532">
        <ele>198.39999389648</ele>
        <time>2022-05-14T12:36:38.000Z</time>
      </trkpt>
      <trkpt lat="46.24408" lon="4.76517">
        <ele>199</ele>
        <time>2022-05-14T12:36:42.000Z</time>
      </trkpt>
      <trkpt lat="46.24435" lon="4.76497">
        <ele>199</ele>
        <time>2022-05-14T12:36:50.000Z</time>
      </trkpt>
      <trkpt lat="46.24446" lon="4.76501">
        <ele>199.39999389648</ele>
        <time>2022-05-14T12:36:54.000Z</time>
      </trkpt>
      <trkpt lat="46.24465" lon="4.7651">
        <ele>200</ele>
        <time>2022-05-14T12:36:59.000Z</time>
      </trkpt>
      <trkpt lat="46.24494" lon="4.76518">
        <ele>201</ele>
        <time>2022-05-14T12:37:06.000Z</time>
      </trkpt>
      <trkpt lat="46.24525" lon="4.76466">
        <ele>201.80000305176</ele>
        <time>2022-05-14T12:37:16.000Z</time>
      </trkpt>
      <trkpt lat="46.24544" lon="4.76426">
        <ele>201.60000610352</ele>
        <time>2022-05-14T12:37:22.000Z</time>
      </trkpt>
      <trkpt lat="46.24592" lon="4.76343">
        <ele>205.60000610352</ele>
        <time>2022-05-14T12:37:36.000Z</time>
      </trkpt>
      <trkpt lat="46.24624" lon="4.76283">
        <ele>206.39999389648</ele>
        <time>2022-05-14T12:37:49.000Z</time>
      </trkpt>
      <trkpt lat="46.24638" lon="4.76281">
        <ele>207</ele>
        <time>2022-05-14T12:37:55.000Z</time>
      </trkpt>
      <trkpt lat="46.24686" lon="4.76222">
        <ele>208.39999389648</ele>
        <time>2022-05-14T12:38:09.000Z</time>
      </trkpt>
      <trkpt lat="46.24724" lon="4.76178">
        <ele>213.80000305176</ele>
        <time>2022-05-14T12:38:20.000Z</time>
      </trkpt>
      <trkpt lat="46.24758" lon="4.76138">
        <ele>218</ele>
        <time>2022-05-14T12:38:31.000Z</time>
      </trkpt>
      <trkpt lat="46.24798" lon="4.7609">
        <ele>220</ele>
        <time>2022-05-14T12:38:44.000Z</time>
      </trkpt>
      <trkpt lat="46.24824" lon="4.76057">
        <ele>222.19999694824</ele>
        <time>2022-05-14T12:38:53.000Z</time>
      </trkpt>
      <trkpt lat="46.24848" lon="4.76028">
        <ele>221.80000305176</ele>
        <time>2022-05-14T12:39:01.000Z</time>
      </trkpt>
      <trkpt lat="46.24865" lon="4.76008">
        <ele>222.60000610352</ele>
        <time>2022-05-14T12:39:07.000Z</time>
      </trkpt>
      <trkpt lat="46.24868" lon="4.76004">
        <ele>222.60000610352</ele>
        <time>2022-05-14T12:39:08.000Z</time>
      </trkpt>
      <trkpt lat="46.24924" lon="4.7594">
        <ele>224.80000305176</ele>
        <time>2022-05-14T12:39:25.000Z</time>
      </trkpt>
      <trkpt lat="46.2496" lon="4.75878">
        <ele>226.80000305176</ele>
        <time>2022-05-14T12:39:38.000Z</time>
      </trkpt>
      <trkpt lat="46.25001" lon="4.75801">
        <ele>232.19999694824</ele>
        <time>2022-05-14T12:39:54.000Z</time>
      </trkpt>
      <trkpt lat="46.25006" lon="4.75792">
        <ele>233</ele>
        <time>2022-05-14T12:39:56.000Z</time>
      </trkpt>
      <trkpt lat="46.25044" lon="4.75727">
        <ele>236</ele>
        <time>2022-05-14T12:40:11.000Z</time>
      </trkpt>
      <trkpt lat="46.25065" lon="4.757">
        <ele>237</ele>
        <time>2022-05-14T12:40:18.000Z</time>
      </trkpt>
      <trkpt lat="46.25097" lon="4.75654">
        <ele>237.80000305176</ele>
        <time>2022-05-14T12:40:29.000Z</time>
      </trkpt>
      <trkpt lat="46.25141" lon="4.75618">
        <ele>240</ele>
        <time>2022-05-14T12:40:41.000Z</time>
      </trkpt>
      <trkpt lat="46.25152" lon="4.75612">
        <ele>240.19999694824</ele>
        <time>2022-05-14T12:40:44.000Z</time>
      </trkpt>
      <trkpt lat="46.25168" lon="4.75604">
        <ele>240.80000305176</ele>
        <time>2022-05-14T12:40:48.000Z</time>
      </trkpt>
      <trkpt lat="46.25202" lon="4.75589">
        <ele>242.60000610352</ele>
        <time>2022-05-14T12:40:56.000Z</time>
      </trkpt>
      <trkpt lat="46.25218" lon="4.75575">
        <ele>243.39999389648</ele>
        <time>2022-05-14T12:41:00.000Z</time>
      </trkpt>
      <trkpt lat="46.25257" lon="4.75501">
        <ele>243.19999694824</ele>
        <time>2022-05-14T12:41:14.000Z</time>
      </trkpt>
      <trkpt lat="46.25266" lon="4.75469">
        <ele>244.80000305176</ele>
        <time>2022-05-14T12:41:19.000Z</time>
      </trkpt>
      <trkpt lat="46.2527" lon="4.75456">
        <ele>245.60000610352</ele>
        <time>2022-05-14T12:41:21.000Z</time>
      </trkpt>
      <trkpt lat="46.2527" lon="4.7545">
        <ele>246</ele>
        <time>2022-05-14T12:41:22.000Z</time>
      </trkpt>
      <trkpt lat="46.25269" lon="4.75443">
        <ele>246.19999694824</ele>
        <time>2022-05-14T12:41:23.000Z</time>
      </trkpt>
      <trkpt lat="46.25267" lon="4.75437">
        <ele>246.39999389648</ele>
        <time>2022-05-14T12:41:24.000Z</time>
      </trkpt>
      <trkpt lat="46.25264" lon="4.75431">
        <ele>246.60000610352</ele>
        <time>2022-05-14T12:41:25.000Z</time>
      </trkpt>
      <trkpt lat="46.2525" lon="4.75389">
        <ele>247.19999694824</ele>
        <time>2022-05-14T12:41:32.000Z</time>
      </trkpt>
      <trkpt lat="46.25251" lon="4.75383">
        <ele>247.39999389648</ele>
        <time>2022-05-14T12:41:33.000Z</time>
      </trkpt>
      <trkpt lat="46.25256" lon="4.75369">
        <ele>248</ele>
        <time>2022-05-14T12:41:35.000Z</time>
      </trkpt>
      <trkpt lat="46.2527" lon="4.75345">
        <ele>248</ele>
        <time>2022-05-14T12:41:39.000Z</time>
      </trkpt>
      <trkpt lat="46.25283" lon="4.7532">
        <ele>247.60000610352</ele>
        <time>2022-05-14T12:41:43.000Z</time>
      </trkpt>
      <trkpt lat="46.25322" lon="4.75249">
        <ele>247.19999694824</ele>
        <time>2022-05-14T12:41:55.000Z</time>
      </trkpt>
      <trkpt lat="46.25388" lon="4.7515">
        <ele>249.39999389648</ele>
        <time>2022-05-14T12:42:12.000Z</time>
      </trkpt>
      <trkpt lat="46.25415" lon="4.75107">
        <ele>249.60000610352</ele>
        <time>2022-05-14T12:42:19.000Z</time>
      </trkpt>
      <trkpt lat="46.25479" lon="4.74983">
        <ele>249.80000305176</ele>
        <time>2022-05-14T12:42:38.000Z</time>
      </trkpt>
      <trkpt lat="46.25485" lon="4.7497">
        <ele>250.39999389648</ele>
        <time>2022-05-14T12:42:40.000Z</time>
      </trkpt>
      <trkpt lat="46.25507" lon="4.74919">
        <ele>251.60000610352</ele>
        <time>2022-05-14T12:42:48.000Z</time>
      </trkpt>
      <trkpt lat="46.25525" lon="4.7488">
        <ele>252.60000610352</ele>
        <time>2022-05-14T12:42:55.000Z</time>
      </trkpt>
      <trkpt lat="46.25568" lon="4.74903">
        <ele>251.39999389648</ele>
        <time>2022-05-14T12:43:05.000Z</time>
      </trkpt>
      <trkpt lat="46.25583" lon="4.74914">
        <ele>251</ele>
        <time>2022-05-14T12:43:08.000Z</time>
      </trkpt>
      <trkpt lat="46.25651" lon="4.74953">
        <ele>253.19999694824</ele>
        <time>2022-05-14T12:43:22.000Z</time>
      </trkpt>
      <trkpt lat="46.25688" lon="4.74978">
        <ele>253.19999694824</ele>
        <time>2022-05-14T12:43:30.000Z</time>
      </trkpt>
      <trkpt lat="46.257" lon="4.74986">
        <ele>252.80000305176</ele>
        <time>2022-05-14T12:43:33.000Z</time>
      </trkpt>
      <trkpt lat="46.25758" lon="4.75011">
        <ele>254.19999694824</ele>
        <time>2022-05-14T12:43:48.000Z</time>
      </trkpt>
      <trkpt lat="46.25785" lon="4.75015">
        <ele>254.80000305176</ele>
        <time>2022-05-14T12:43:58.000Z</time>
      </trkpt>
      <trkpt lat="46.25796" lon="4.74994">
        <ele>255</ele>
        <time>2022-05-14T12:44:04.000Z</time>
      </trkpt>
      <trkpt lat="46.25807" lon="4.75001">
        <ele>254.60000610352</ele>
        <time>2022-05-14T12:44:09.000Z</time>
      </trkpt>
      <trkpt lat="46.25826" lon="4.75034">
        <ele>253</ele>
        <time>2022-05-14T12:44:14.000Z</time>
      </trkpt>
      <trkpt lat="46.25833" lon="4.75047">
        <ele>252.60000610352</ele>
        <time>2022-05-14T12:44:16.000Z</time>
      </trkpt>
      <trkpt lat="46.25843" lon="4.75065">
        <ele>251.80000305176</ele>
        <time>2022-05-14T12:44:19.000Z</time>
      </trkpt>
      <trkpt lat="46.25861" lon="4.75107">
        <ele>249.80000305176</ele>
        <time>2022-05-14T12:44:25.000Z</time>
      </trkpt>
      <trkpt lat="46.25863" lon="4.75115">
        <ele>249.80000305176</ele>
        <time>2022-05-14T12:44:26.000Z</time>
      </trkpt>
      <trkpt lat="46.25878" lon="4.75184">
        <ele>250</ele>
        <time>2022-05-14T12:44:35.000Z</time>
      </trkpt>
      <trkpt lat="46.25921" lon="4.75273">
        <ele>254.60000610352</ele>
        <time>2022-05-14T12:44:49.000Z</time>
      </trkpt>
      <trkpt lat="46.25959" lon="4.75339">
        <ele>256.60000610352</ele>
        <time>2022-05-14T12:45:02.000Z</time>
      </trkpt>
      <trkpt lat="46.25971" lon="4.75361">
        <ele>257</ele>
        <time>2022-05-14T12:45:08.000Z</time>
      </trkpt>
      <trkpt lat="46.25995" lon="4.75357">
        <ele>257.60000610352</ele>
        <time>2022-05-14T12:45:14.000Z</time>
      </trkpt>
      <trkpt lat="46.26008" lon="4.75351">
        <ele>258.79998779297</ele>
        <time>2022-05-14T12:45:17.000Z</time>
      </trkpt>
      <trkpt lat="46.26023" lon="4.7534">
        <ele>261.20001220703</ele>
        <time>2022-05-14T12:45:21.000Z</time>
      </trkpt>
      <trkpt lat="46.26037" lon="4.75321">
        <ele>263</ele>
        <time>2022-05-14T12:45:25.000Z</time>
      </trkpt>
      <trkpt lat="46.26044" lon="4.75295">
        <ele>264.60000610352</ele>
        <time>2022-05-14T12:45:29.000Z</time>
      </trkpt>
      <trkpt lat="46.26052" lon="4.75254">
        <ele>266.39999389648</ele>
        <time>2022-05-14T12:45:35.000Z</time>
      </trkpt>
      <trkpt lat="46.26061" lon="4.75204">
        <ele>269.60000610352</ele>
        <time>2022-05-14T12:45:42.000Z</time>
      </trkpt>
      <trkpt lat="46.26063" lon="4.7519">
        <ele>270.39999389648</ele>
        <time>2022-05-14T12:45:44.000Z</time>
      </trkpt>
      <trkpt lat="46.26067" lon="4.75169">
        <ele>270.60000610352</ele>
        <time>2022-05-14T12:45:47.000Z</time>
      </trkpt>
      <trkpt lat="46.2607" lon="4.75157">
        <ele>270.79998779297</ele>
        <time>2022-05-14T12:45:49.000Z</time>
      </trkpt>
      <trkpt lat="46.26073" lon="4.75152">
        <ele>270.79998779297</ele>
        <time>2022-05-14T12:45:50.000Z</time>
      </trkpt>
      <trkpt lat="46.26077" lon="4.75147">
        <ele>271</ele>
        <time>2022-05-14T12:45:51.000Z</time>
      </trkpt>
      <trkpt lat="46.26091" lon="4.75138">
        <ele>271.20001220703</ele>
        <time>2022-05-14T12:45:54.000Z</time>
      </trkpt>
      <trkpt lat="46.2614" lon="4.75119">
        <ele>273.20001220703</ele>
        <time>2022-05-14T12:46:04.000Z</time>
      </trkpt>
      <trkpt lat="46.26204" lon="4.75089">
        <ele>275</ele>
        <time>2022-05-14T12:46:19.000Z</time>
      </trkpt>
      <trkpt lat="46.2622" lon="4.75068">
        <ele>275</ele>
        <time>2022-05-14T12:46:24.000Z</time>
      </trkpt>
      <trkpt lat="46.26245" lon="4.75022">
        <ele>276.20001220703</ele>
        <time>2022-05-14T12:46:34.000Z</time>
      </trkpt>
      <trkpt lat="46.26311" lon="4.75027">
        <ele>281.20001220703</ele>
        <time>2022-05-14T12:46:50.000Z</time>
      </trkpt>
      <trkpt lat="46.26348" lon="4.75026">
        <ele>283.79998779297</ele>
        <time>2022-05-14T12:47:00.000Z</time>
      </trkpt>
      <trkpt lat="46.26402" lon="4.75027">
        <ele>288</ele>
        <time>2022-05-14T12:47:14.000Z</time>
      </trkpt>
      <trkpt lat="46.26419" lon="4.75026">
        <ele>288.60000610352</ele>
        <time>2022-05-14T12:47:18.000Z</time>
      </trkpt>
      <trkpt lat="46.26431" lon="4.75013">
        <ele>289.60000610352</ele>
        <time>2022-05-14T12:47:22.000Z</time>
      </trkpt>
      <trkpt lat="46.26444" lon="4.74983">
        <ele>291.79998779297</ele>
        <time>2022-05-14T12:47:28.000Z</time>
      </trkpt>
      <trkpt lat="46.26459" lon="4.74956">
        <ele>295.20001220703</ele>
        <time>2022-05-14T12:47:34.000Z</time>
      </trkpt>
      <trkpt lat="46.26475" lon="4.74922">
        <ele>297.39999389648</ele>
        <time>2022-05-14T12:47:41.000Z</time>
      </trkpt>
      <trkpt lat="46.26493" lon="4.74882">
        <ele>300</ele>
        <time>2022-05-14T12:47:49.000Z</time>
      </trkpt>
      <trkpt lat="46.26498" lon="4.74873">
        <ele>301</ele>
        <time>2022-05-14T12:47:51.000Z</time>
      </trkpt>
      <trkpt lat="46.26512" lon="4.74839">
        <ele>305.20001220703</ele>
        <time>2022-05-14T12:47:58.000Z</time>
      </trkpt>
      <trkpt lat="46.2653" lon="4.74793">
        <ele>309.60000610352</ele>
        <time>2022-05-14T12:48:07.000Z</time>
      </trkpt>
      <trkpt lat="46.26532" lon="4.74788">
        <ele>309.60000610352</ele>
        <time>2022-05-14T12:48:08.000Z</time>
      </trkpt>
      <trkpt lat="46.2654" lon="4.74722">
        <ele>311</ele>
        <time>2022-05-14T12:48:18.000Z</time>
      </trkpt>
      <trkpt lat="46.26545" lon="4.74627">
        <ele>315.39999389648</ele>
        <time>2022-05-14T12:48:32.000Z</time>
      </trkpt>
      <trkpt lat="46.26549" lon="4.74575">
        <ele>318.60000610352</ele>
        <time>2022-05-14T12:48:40.000Z</time>
      </trkpt>
      <trkpt lat="46.26557" lon="4.74523">
        <ele>321.60000610352</ele>
        <time>2022-05-14T12:48:48.000Z</time>
      </trkpt>
      <trkpt lat="46.26568" lon="4.74472">
        <ele>326.20001220703</ele>
        <time>2022-05-14T12:48:56.000Z</time>
      </trkpt>
      <trkpt lat="46.26571" lon="4.74459">
        <ele>327.20001220703</ele>
        <time>2022-05-14T12:48:58.000Z</time>
      </trkpt>
      <trkpt lat="46.26574" lon="4.74447">
        <ele>328.20001220703</ele>
        <time>2022-05-14T12:49:00.000Z</time>
      </trkpt>
      <trkpt lat="46.26583" lon="4.74406">
        <ele>332.60000610352</ele>
        <time>2022-05-14T12:49:07.000Z</time>
      </trkpt>
      <trkpt lat="46.26591" lon="4.74372">
        <ele>336.20001220703</ele>
        <time>2022-05-14T12:49:13.000Z</time>
      </trkpt>
      <trkpt lat="46.26595" lon="4.74347">
        <ele>339.39999389648</ele>
        <time>2022-05-14T12:49:18.000Z</time>
      </trkpt>
      <trkpt lat="46.26611" lon="4.74337">
        <ele>340.20001220703</ele>
        <time>2022-05-14T12:49:23.000Z</time>
      </trkpt>
      <trkpt lat="46.26632" lon="4.74331">
        <ele>340.60000610352</ele>
        <time>2022-05-14T12:49:29.000Z</time>
      </trkpt>
      <trkpt lat="46.26693" lon="4.74311">
        <ele>346.20001220703</ele>
        <time>2022-05-14T12:49:46.000Z</time>
      </trkpt>
      <trkpt lat="46.26734" lon="4.743">
        <ele>348</ele>
        <time>2022-05-14T12:49:59.000Z</time>
      </trkpt>
      <trkpt lat="46.26779" lon="4.74285">
        <ele>348.39999389648</ele>
        <time>2022-05-14T12:50:12.000Z</time>
      </trkpt>
      <trkpt lat="46.26834" lon="4.74266">
        <ele>350.60000610352</ele>
        <time>2022-05-14T12:50:28.000Z</time>
      </trkpt>
      <trkpt lat="46.26881" lon="4.74246">
        <ele>355</ele>
        <time>2022-05-14T12:50:41.000Z</time>
      </trkpt>
      <trkpt lat="46.2693" lon="4.74207">
        <ele>358.60000610352</ele>
        <time>2022-05-14T12:50:56.000Z</time>
      </trkpt>
      <trkpt lat="46.26964" lon="4.74181">
        <ele>360.20001220703</ele>
        <time>2022-05-14T12:51:08.000Z</time>
      </trkpt>
      <trkpt lat="46.27" lon="4.74159">
        <ele>362</ele>
        <time>2022-05-14T12:51:20.000Z</time>
      </trkpt>
      <trkpt lat="46.27045" lon="4.7413">
        <ele>365.79998779297</ele>
        <time>2022-05-14T12:51:35.000Z</time>
      </trkpt>
      <trkpt lat="46.27103" lon="4.74123">
        <ele>369</ele>
        <time>2022-05-14T12:51:53.000Z</time>
      </trkpt>
      <trkpt lat="46.27151" lon="4.74141">
        <ele>373.39999389648</ele>
        <time>2022-05-14T12:52:09.000Z</time>
      </trkpt>
      <trkpt lat="46.27188" lon="4.74186">
        <ele>370.20001220703</ele>
        <time>2022-05-14T12:52:21.000Z</time>
      </trkpt>
      <trkpt lat="46.27227" lon="4.74236">
        <ele>368.39999389648</ele>
        <time>2022-05-14T12:52:30.000Z</time>
      </trkpt>
      <trkpt lat="46.27278" lon="4.74296">
        <ele>366.60000610352</ele>
        <time>2022-05-14T12:52:43.000Z</time>
      </trkpt>
      <trkpt lat="46.27295" lon="4.74315">
        <ele>366.60000610352</ele>
        <time>2022-05-14T12:52:47.000Z</time>
      </trkpt>
      <trkpt lat="46.27304" lon="4.74323">
        <ele>367</ele>
        <time>2022-05-14T12:52:49.000Z</time>
      </trkpt>
      <trkpt lat="46.2732" lon="4.74341">
        <ele>368</ele>
        <time>2022-05-14T12:52:53.000Z</time>
      </trkpt>
      <trkpt lat="46.27334" lon="4.74347">
        <ele>369</ele>
        <time>2022-05-14T12:52:57.000Z</time>
      </trkpt>
      <trkpt lat="46.27336" lon="4.74343">
        <ele>369.39999389648</ele>
        <time>2022-05-14T12:52:58.000Z</time>
      </trkpt>
      <trkpt lat="46.27336" lon="4.74338">
        <ele>369.79998779297</ele>
        <time>2022-05-14T12:52:59.000Z</time>
      </trkpt>
      <trkpt lat="46.27337" lon="4.74333">
        <ele>370</ele>
        <time>2022-05-14T12:53:00.000Z</time>
      </trkpt>
      <trkpt lat="46.27337" lon="4.74328">
        <ele>370.20001220703</ele>
        <time>2022-05-14T12:53:01.000Z</time>
      </trkpt>
      <trkpt lat="46.27335" lon="4.74317">
        <ele>370.39999389648</ele>
        <time>2022-05-14T12:53:03.000Z</time>
      </trkpt>
      <trkpt lat="46.27326" lon="4.74258">
        <ele>371</ele>
        <time>2022-05-14T12:53:15.000Z</time>
      </trkpt>
      <trkpt lat="46.27316" lon="4.74216">
        <ele>373.79998779297</ele>
        <time>2022-05-14T12:53:23.000Z</time>
      </trkpt>
      <trkpt lat="46.27292" lon="4.74162">
        <ele>377.60000610352</ele>
        <time>2022-05-14T12:53:33.000Z</time>
      </trkpt>
      <trkpt lat="46.27285" lon="4.74103">
        <ele>381.60000610352</ele>
        <time>2022-05-14T12:53:43.000Z</time>
      </trkpt>
      <trkpt lat="46.27279" lon="4.7407">
        <ele>384.20001220703</ele>
        <time>2022-05-14T12:53:49.000Z</time>
      </trkpt>
      <trkpt lat="46.2727" lon="4.74016">
        <ele>388.39999389648</ele>
        <time>2022-05-14T12:54:00.000Z</time>
      </trkpt>
      <trkpt lat="46.27262" lon="4.73974">
        <ele>390.79998779297</ele>
        <time>2022-05-14T12:54:07.000Z</time>
      </trkpt>
      <trkpt lat="46.27259" lon="4.73961">
        <ele>391.79998779297</ele>
        <time>2022-05-14T12:54:09.000Z</time>
      </trkpt>
      <trkpt lat="46.27257" lon="4.73947">
        <ele>392.60000610352</ele>
        <time>2022-05-14T12:54:11.000Z</time>
      </trkpt>
      <trkpt lat="46.27255" lon="4.73934">
        <ele>393.20001220703</ele>
        <time>2022-05-14T12:54:13.000Z</time>
      </trkpt>
      <trkpt lat="46.27255" lon="4.73928">
        <ele>393.39999389648</ele>
        <time>2022-05-14T12:54:14.000Z</time>
      </trkpt>
      <trkpt lat="46.27252" lon="4.7391">
        <ele>394.20001220703</ele>
        <time>2022-05-14T12:54:17.000Z</time>
      </trkpt>
      <trkpt lat="46.27243" lon="4.73856">
        <ele>396.79998779297</ele>
        <time>2022-05-14T12:54:27.000Z</time>
      </trkpt>
      <trkpt lat="46.27236" lon="4.73809">
        <ele>399.79998779297</ele>
        <time>2022-05-14T12:54:36.000Z</time>
      </trkpt>
      <trkpt lat="46.27233" lon="4.7379">
        <ele>401.39999389648</ele>
        <time>2022-05-14T12:54:39.000Z</time>
      </trkpt>
      <trkpt lat="46.27232" lon="4.73759">
        <ele>404.60000610352</ele>
        <time>2022-05-14T12:54:44.000Z</time>
      </trkpt>
      <trkpt lat="46.27234" lon="4.737">
        <ele>405.79998779297</ele>
        <time>2022-05-14T12:54:55.000Z</time>
      </trkpt>
      <trkpt lat="46.27241" lon="4.73648">
        <ele>404.39999389648</ele>
        <time>2022-05-14T12:55:04.000Z</time>
      </trkpt>
      <trkpt lat="46.27245" lon="4.73637">
        <ele>403.79998779297</ele>
        <time>2022-05-14T12:55:06.000Z</time>
      </trkpt>
      <trkpt lat="46.2726" lon="4.73574">
        <ele>401.60000610352</ele>
        <time>2022-05-14T12:55:15.000Z</time>
      </trkpt>
      <trkpt lat="46.27285" lon="4.73458">
        <ele>396</ele>
        <time>2022-05-14T12:55:30.000Z</time>
      </trkpt>
      <trkpt lat="46.273" lon="4.73384">
        <ele>393</ele>
        <time>2022-05-14T12:55:40.000Z</time>
      </trkpt>
      <trkpt lat="46.27346" lon="4.73272">
        <ele>391</ele>
        <time>2022-05-14T12:55:55.000Z</time>
      </trkpt>
      <trkpt lat="46.2736" lon="4.73244">
        <ele>389.79998779297</ele>
        <time>2022-05-14T12:55:58.000Z</time>
      </trkpt>
      <trkpt lat="46.27372" lon="4.73229">
        <ele>389.39999389648</ele>
        <time>2022-05-14T12:56:00.000Z</time>
      </trkpt>
      <trkpt lat="46.27386" lon="4.73202">
        <ele>389.79998779297</ele>
        <time>2022-05-14T12:56:03.000Z</time>
      </trkpt>
      <trkpt lat="46.27396" lon="4.73166">
        <ele>388.60000610352</ele>
        <time>2022-05-14T12:56:07.000Z</time>
      </trkpt>
      <trkpt lat="46.27398" lon="4.73158">
        <ele>388.39999389648</ele>
        <time>2022-05-14T12:56:08.000Z</time>
      </trkpt>
      <trkpt lat="46.27404" lon="4.73145">
        <ele>387.39999389648</ele>
        <time>2022-05-14T12:56:10.000Z</time>
      </trkpt>
      <trkpt lat="46.27406" lon="4.7314">
        <ele>387</ele>
        <time>2022-05-14T12:56:11.000Z</time>
      </trkpt>
      <trkpt lat="46.27409" lon="4.73133">
        <ele>386.60000610352</ele>
        <time>2022-05-14T12:56:13.000Z</time>
      </trkpt>
      <trkpt lat="46.27421" lon="4.73109">
        <ele>385.39999389648</ele>
        <time>2022-05-14T12:56:19.000Z</time>
      </trkpt>
      <trkpt lat="46.27428" lon="4.73084">
        <ele>384.79998779297</ele>
        <time>2022-05-14T12:56:23.000Z</time>
      </trkpt>
      <trkpt lat="46.27434" lon="4.73066">
        <ele>384.79998779297</ele>
        <time>2022-05-14T12:56:26.000Z</time>
      </trkpt>
      <trkpt lat="46.27455" lon="4.73055">
        <ele>385.60000610352</ele>
        <time>2022-05-14T12:56:33.000Z</time>
      </trkpt>
      <trkpt lat="46.27465" lon="4.73065">
        <ele>385.79998779297</ele>
        <time>2022-05-14T12:56:36.000Z</time>
      </trkpt>
      <trkpt lat="46.27481" lon="4.73079">
        <ele>385.39999389648</ele>
        <time>2022-05-14T12:56:40.000Z</time>
      </trkpt>
      <trkpt lat="46.27502" lon="4.73091">
        <ele>384.60000610352</ele>
        <time>2022-05-14T12:56:45.000Z</time>
      </trkpt>
      <trkpt lat="46.27531" lon="4.73085">
        <ele>384.39999389648</ele>
        <time>2022-05-14T12:56:51.000Z</time>
      </trkpt>
      <trkpt lat="46.27604" lon="4.73059">
        <ele>388.20001220703</ele>
        <time>2022-05-14T12:57:06.000Z</time>
      </trkpt>
      <trkpt lat="46.27703" lon="4.73049">
        <ele>388.39999389648</ele>
        <time>2022-05-14T12:57:25.000Z</time>
      </trkpt>
      <trkpt lat="46.2777" lon="4.73045">
        <ele>387.20001220703</ele>
        <time>2022-05-14T12:57:38.000Z</time>
      </trkpt>
      <trkpt lat="46.27823" lon="4.73056">
        <ele>386.39999389648</ele>
        <time>2022-05-14T12:57:51.000Z</time>
      </trkpt>
      <trkpt lat="46.27898" lon="4.73082">
        <ele>383.60000610352</ele>
        <time>2022-05-14T12:58:06.000Z</time>
      </trkpt>
      <trkpt lat="46.27966" lon="4.73105">
        <ele>382.79998779297</ele>
        <time>2022-05-14T12:58:21.000Z</time>
      </trkpt>
      <trkpt lat="46.27977" lon="4.73109">
        <ele>383.39999389648</ele>
        <time>2022-05-14T12:58:24.000Z</time>
      </trkpt>
      <trkpt lat="46.27991" lon="4.73103">
        <ele>384.79998779297</ele>
        <time>2022-05-14T12:58:31.000Z</time>
      </trkpt>
      <trkpt lat="46.28034" lon="4.73119">
        <ele>384.39999389648</ele>
        <time>2022-05-14T12:58:40.000Z</time>
      </trkpt>
      <trkpt lat="46.28105" lon="4.73131">
        <ele>388</ele>
        <time>2022-05-14T12:58:55.000Z</time>
      </trkpt>
      <trkpt lat="46.28113" lon="4.73129">
        <ele>388.39999389648</ele>
        <time>2022-05-14T12:58:58.000Z</time>
      </trkpt>
      <trkpt lat="46.28115" lon="4.73126">
        <ele>388.79998779297</ele>
        <time>2022-05-14T12:58:59.000Z</time>
      </trkpt>
      <trkpt lat="46.28118" lon="4.73104">
        <ele>390</ele>
        <time>2022-05-14T12:59:03.000Z</time>
      </trkpt>
      <trkpt lat="46.28121" lon="4.73084">
        <ele>391.39999389648</ele>
        <time>2022-05-14T12:59:06.000Z</time>
      </trkpt>
      <trkpt lat="46.28129" lon="4.7301">
        <ele>396.39999389648</ele>
        <time>2022-05-14T12:59:17.000Z</time>
      </trkpt>
      <trkpt lat="46.28136" lon="4.72976">
        <ele>400.39999389648</ele>
        <time>2022-05-14T12:59:22.000Z</time>
      </trkpt>
      <trkpt lat="46.28139" lon="4.72959">
        <ele>401.20001220703</ele>
        <time>2022-05-14T12:59:25.000Z</time>
      </trkpt>
      <trkpt lat="46.2814" lon="4.7295">
        <ele>401.60000610352</ele>
        <time>2022-05-14T12:59:27.000Z</time>
      </trkpt>
      <trkpt lat="46.28159" lon="4.72947">
        <ele>403.20001220703</ele>
        <time>2022-05-14T12:59:33.000Z</time>
      </trkpt>
      <trkpt lat="46.28239" lon="4.72929">
        <ele>408.39999389648</ele>
        <time>2022-05-14T12:59:48.000Z</time>
      </trkpt>
      <trkpt lat="46.28272" lon="4.7292">
        <ele>410.20001220703</ele>
        <time>2022-05-14T12:59:54.000Z</time>
      </trkpt>
      <trkpt lat="46.28323" lon="4.72897">
        <ele>413</ele>
        <time>2022-05-14T13:00:04.000Z</time>
      </trkpt>
      <trkpt lat="46.28356" lon="4.72879">
        <ele>415.20001220703</ele>
        <time>2022-05-14T13:00:12.000Z</time>
      </trkpt>
      <trkpt lat="46.28382" lon="4.72872">
        <ele>416.60000610352</ele>
        <time>2022-05-14T13:00:18.000Z</time>
      </trkpt>
      <trkpt lat="46.2842" lon="4.72867">
        <ele>416.60000610352</ele>
        <time>2022-05-14T13:00:29.000Z</time>
      </trkpt>
      <trkpt lat="46.2847" lon="4.72882">
        <ele>411.20001220703</ele>
        <time>2022-05-14T13:00:41.000Z</time>
      </trkpt>
      <trkpt lat="46.28497" lon="4.72891">
        <ele>406.20001220703</ele>
        <time>2022-05-14T13:00:49.000Z</time>
      </trkpt>
      <trkpt lat="46.28502" lon="4.72893">
        <ele>405.20001220703</ele>
        <time>2022-05-14T13:00:50.000Z</time>
      </trkpt>
      <trkpt lat="46.28522" lon="4.72894">
        <ele>402.39999389648</ele>
        <time>2022-05-14T13:00:53.000Z</time>
      </trkpt>
      <trkpt lat="46.28538" lon="4.72896">
        <ele>403.60000610352</ele>
        <time>2022-05-14T13:00:55.000Z</time>
      </trkpt>
      <trkpt lat="46.28568" lon="4.72911">
        <ele>404.79998779297</ele>
        <time>2022-05-14T13:01:00.000Z</time>
      </trkpt>
      <trkpt lat="46.28581" lon="4.72923">
        <ele>404.60000610352</ele>
        <time>2022-05-14T13:01:03.000Z</time>
      </trkpt>
      <trkpt lat="46.28593" lon="4.72939">
        <ele>404.39999389648</ele>
        <time>2022-05-14T13:01:06.000Z</time>
      </trkpt>
      <trkpt lat="46.28625" lon="4.7301">
        <ele>395.39999389648</ele>
        <time>2022-05-14T13:01:16.000Z</time>
      </trkpt>
      <trkpt lat="46.28642" lon="4.73044">
        <ele>393.79998779297</ele>
        <time>2022-05-14T13:01:21.000Z</time>
      </trkpt>
      <trkpt lat="46.28706" lon="4.73092">
        <ele>395.39999389648</ele>
        <time>2022-05-14T13:01:35.000Z</time>
      </trkpt>
      <trkpt lat="46.28737" lon="4.73118">
        <ele>393.60000610352</ele>
        <time>2022-05-14T13:01:42.000Z</time>
      </trkpt>
      <trkpt lat="46.28749" lon="4.73134">
        <ele>392</ele>
        <time>2022-05-14T13:01:46.000Z</time>
      </trkpt>
      <trkpt lat="46.28816" lon="4.73203">
        <ele>385.79998779297</ele>
        <time>2022-05-14T13:02:03.000Z</time>
      </trkpt>
      <trkpt lat="46.28839" lon="4.73228">
        <ele>382.60000610352</ele>
        <time>2022-05-14T13:02:08.000Z</time>
      </trkpt>
      <trkpt lat="46.28885" lon="4.73255">
        <ele>379</ele>
        <time>2022-05-14T13:02:16.000Z</time>
      </trkpt>
      <trkpt lat="46.28925" lon="4.73283">
        <ele>375</ele>
        <time>2022-05-14T13:02:23.000Z</time>
      </trkpt>
      <trkpt lat="46.2893" lon="4.73287">
        <ele>374.39999389648</ele>
        <time>2022-05-14T13:02:24.000Z</time>
      </trkpt>
      <trkpt lat="46.28937" lon="4.7329">
        <ele>373.79998779297</ele>
        <time>2022-05-14T13:02:25.000Z</time>
      </trkpt>
      <trkpt lat="46.28986" lon="4.73322">
        <ele>366.79998779297</ele>
        <time>2022-05-14T13:02:32.000Z</time>
      </trkpt>
      <trkpt lat="46.29006" lon="4.73337">
        <ele>363.39999389648</ele>
        <time>2022-05-14T13:02:35.000Z</time>
      </trkpt>
      <trkpt lat="46.29032" lon="4.73355">
        <ele>360.60000610352</ele>
        <time>2022-05-14T13:02:39.000Z</time>
      </trkpt>
      <trkpt lat="46.29057" lon="4.73374">
        <ele>357.39999389648</ele>
        <time>2022-05-14T13:02:43.000Z</time>
      </trkpt>
      <trkpt lat="46.29073" lon="4.73385">
        <ele>354.39999389648</ele>
        <time>2022-05-14T13:02:47.000Z</time>
      </trkpt>
      <trkpt lat="46.2908" lon="4.73379">
        <ele>353.79998779297</ele>
        <time>2022-05-14T13:02:50.000Z</time>
      </trkpt>
      <trkpt lat="46.29099" lon="4.73349">
        <ele>352.79998779297</ele>
        <time>2022-05-14T13:02:56.000Z</time>
      </trkpt>
      <trkpt lat="46.29127" lon="4.73323">
        <ele>351</ele>
        <time>2022-05-14T13:03:07.000Z</time>
      </trkpt>
      <trkpt lat="46.29137" lon="4.73332">
        <ele>349.20001220703</ele>
        <time>2022-05-14T13:03:10.000Z</time>
      </trkpt>
      <trkpt lat="46.29175" lon="4.7336">
        <ele>345.20001220703</ele>
        <time>2022-05-14T13:03:17.000Z</time>
      </trkpt>
      <trkpt lat="46.29197" lon="4.73376">
        <ele>343</ele>
        <time>2022-05-14T13:03:21.000Z</time>
      </trkpt>
      <trkpt lat="46.29233" lon="4.73397">
        <ele>339.79998779297</ele>
        <time>2022-05-14T13:03:26.000Z</time>
      </trkpt>
      <trkpt lat="46.29263" lon="4.73426">
        <ele>336</ele>
        <time>2022-05-14T13:03:31.000Z</time>
      </trkpt>
      <trkpt lat="46.29268" lon="4.73432">
        <ele>335.39999389648</ele>
        <time>2022-05-14T13:03:33.000Z</time>
      </trkpt>
      <trkpt lat="46.2928" lon="4.73425">
        <ele>334.39999389648</ele>
        <time>2022-05-14T13:03:38.000Z</time>
      </trkpt>
      <trkpt lat="46.29336" lon="4.73388">
        <ele>328.39999389648</ele>
        <time>2022-05-14T13:03:48.000Z</time>
      </trkpt>
      <trkpt lat="46.29376" lon="4.7336">
        <ele>324.39999389648</ele>
        <time>2022-05-14T13:03:54.000Z</time>
      </trkpt>
      <trkpt lat="46.294" lon="4.73342">
        <ele>320.39999389648</ele>
        <time>2022-05-14T13:03:58.000Z</time>
      </trkpt>
      <trkpt lat="46.29405" lon="4.7334">
        <ele>319.20001220703</ele>
        <time>2022-05-14T13:03:59.000Z</time>
      </trkpt>
      <trkpt lat="46.29437" lon="4.73323">
        <ele>312.39999389648</ele>
        <time>2022-05-14T13:04:05.000Z</time>
      </trkpt>
      <trkpt lat="46.29458" lon="4.73313">
        <ele>308</ele>
        <time>2022-05-14T13:04:10.000Z</time>
      </trkpt>
      <trkpt lat="46.29469" lon="4.73303">
        <ele>305.60000610352</ele>
        <time>2022-05-14T13:04:13.000Z</time>
      </trkpt>
      <trkpt lat="46.29495" lon="4.73272">
        <ele>300.79998779297</ele>
        <time>2022-05-14T13:04:20.000Z</time>
      </trkpt>
      <trkpt lat="46.29508" lon="4.73258">
        <ele>299</ele>
        <time>2022-05-14T13:04:24.000Z</time>
      </trkpt>
      <trkpt lat="46.2951" lon="4.73254">
        <ele>298.79998779297</ele>
        <time>2022-05-14T13:04:25.000Z</time>
      </trkpt>
      <trkpt lat="46.29512" lon="4.73221">
        <ele>297.39999389648</ele>
        <time>2022-05-14T13:04:30.000Z</time>
      </trkpt>
      <trkpt lat="46.29512" lon="4.73206">
        <ele>297</ele>
        <time>2022-05-14T13:04:32.000Z</time>
      </trkpt>
      <trkpt lat="46.2951" lon="4.7318">
        <ele>295.20001220703</ele>
        <time>2022-05-14T13:04:36.000Z</time>
      </trkpt>
      <trkpt lat="46.29508" lon="4.7315">
        <ele>292.60000610352</ele>
        <time>2022-05-14T13:04:40.000Z</time>
      </trkpt>
      <trkpt lat="46.29506" lon="4.73123">
        <ele>290</ele>
        <time>2022-05-14T13:04:43.000Z</time>
      </trkpt>
      <trkpt lat="46.29499" lon="4.73096">
        <ele>288.79998779297</ele>
        <time>2022-05-14T13:04:46.000Z</time>
      </trkpt>
      <trkpt lat="46.29478" lon="4.7306">
        <ele>288.79998779297</ele>
        <time>2022-05-14T13:04:51.000Z</time>
      </trkpt>
      <trkpt lat="46.29476" lon="4.73043">
        <ele>286.60000610352</ele>
        <time>2022-05-14T13:04:56.000Z</time>
      </trkpt>
      <trkpt lat="46.29489" lon="4.73039">
        <ele>283.60000610352</ele>
        <time>2022-05-14T13:04:58.000Z</time>
      </trkpt>
      <trkpt lat="46.29542" lon="4.73039">
        <ele>278.20001220703</ele>
        <time>2022-05-14T13:05:04.000Z</time>
      </trkpt>
      <trkpt lat="46.2955" lon="4.7304">
        <ele>278</ele>
        <time>2022-05-14T13:05:05.000Z</time>
      </trkpt>
      <trkpt lat="46.29564" lon="4.7304">
        <ele>278.20001220703</ele>
        <time>2022-05-14T13:05:07.000Z</time>
      </trkpt>
      <trkpt lat="46.29573" lon="4.73039">
        <ele>278.60000610352</ele>
        <time>2022-05-14T13:05:09.000Z</time>
      </trkpt>
      <trkpt lat="46.29584" lon="4.73038">
        <ele>279.79998779297</ele>
        <time>2022-05-14T13:05:12.000Z</time>
      </trkpt>
      <trkpt lat="46.29602" lon="4.73055">
        <ele>281.60000610352</ele>
        <time>2022-05-14T13:05:17.000Z</time>
      </trkpt>
      <trkpt lat="46.29619" lon="4.73093">
        <ele>283.79998779297</ele>
        <time>2022-05-14T13:05:23.000Z</time>
      </trkpt>
      <trkpt lat="46.29648" lon="4.73195">
        <ele>280.60000610352</ele>
        <time>2022-05-14T13:05:38.000Z</time>
      </trkpt>
      <trkpt lat="46.29665" lon="4.73312">
        <ele>276.60000610352</ele>
        <time>2022-05-14T13:05:50.000Z</time>
      </trkpt>
      <trkpt lat="46.29672" lon="4.73374">
        <ele>271.60000610352</ele>
        <time>2022-05-14T13:05:56.000Z</time>
      </trkpt>
      <trkpt lat="46.29679" lon="4.73464">
        <ele>263.79998779297</ele>
        <time>2022-05-14T13:06:04.000Z</time>
      </trkpt>
      <trkpt lat="46.29701" lon="4.73538">
        <ele>260.39999389648</ele>
        <time>2022-05-14T13:06:10.000Z</time>
      </trkpt>
      <trkpt lat="46.29717" lon="4.73584">
        <ele>260.20001220703</ele>
        <time>2022-05-14T13:06:14.000Z</time>
      </trkpt>
      <trkpt lat="46.29721" lon="4.73595">
        <ele>260.20001220703</ele>
        <time>2022-05-14T13:06:15.000Z</time>
      </trkpt>
      <trkpt lat="46.2974" lon="4.73635">
        <ele>260.20001220703</ele>
        <time>2022-05-14T13:06:19.000Z</time>
      </trkpt>
      <trkpt lat="46.29746" lon="4.73644">
        <ele>260.20001220703</ele>
        <time>2022-05-14T13:06:20.000Z</time>
      </trkpt>
      <trkpt lat="46.2978" lon="4.73742">
        <ele>259.39999389648</ele>
        <time>2022-05-14T13:06:30.000Z</time>
      </trkpt>
      <trkpt lat="46.29782" lon="4.73789">
        <ele>258.60000610352</ele>
        <time>2022-05-14T13:06:35.000Z</time>
      </trkpt>
      <trkpt lat="46.29768" lon="4.73961">
        <ele>251.80000305176</ele>
        <time>2022-05-14T13:06:51.000Z</time>
      </trkpt>
      <trkpt lat="46.29766" lon="4.73972">
        <ele>251.19999694824</ele>
        <time>2022-05-14T13:06:52.000Z</time>
      </trkpt>
      <trkpt lat="46.29762" lon="4.74006">
        <ele>248.60000610352</ele>
        <time>2022-05-14T13:06:55.000Z</time>
      </trkpt>
      <trkpt lat="46.29759" lon="4.74035">
        <ele>246</ele>
        <time>2022-05-14T13:06:58.000Z</time>
      </trkpt>
      <trkpt lat="46.29763" lon="4.74065">
        <ele>243.80000305176</ele>
        <time>2022-05-14T13:07:02.000Z</time>
      </trkpt>
      <trkpt lat="46.29769" lon="4.7408">
        <ele>242.60000610352</ele>
        <time>2022-05-14T13:07:04.000Z</time>
      </trkpt>
      <trkpt lat="46.29807" lon="4.74159">
        <ele>236.80000305176</ele>
        <time>2022-05-14T13:07:14.000Z</time>
      </trkpt>
      <trkpt lat="46.29821" lon="4.74193">
        <ele>236</ele>
        <time>2022-05-14T13:07:18.000Z</time>
      </trkpt>
      <trkpt lat="46.29828" lon="4.7421">
        <ele>235</ele>
        <time>2022-05-14T13:07:20.000Z</time>
      </trkpt>
      <trkpt lat="46.2983" lon="4.74218">
        <ele>234.39999389648</ele>
        <time>2022-05-14T13:07:21.000Z</time>
      </trkpt>
      <trkpt lat="46.29831" lon="4.74226">
        <ele>233.60000610352</ele>
        <time>2022-05-14T13:07:22.000Z</time>
      </trkpt>
      <trkpt lat="46.29834" lon="4.74248">
        <ele>232.60000610352</ele>
        <time>2022-05-14T13:07:25.000Z</time>
      </trkpt>
      <trkpt lat="46.29836" lon="4.74253">
        <ele>232.39999389648</ele>
        <time>2022-05-14T13:07:26.000Z</time>
      </trkpt>
      <trkpt lat="46.29842" lon="4.74275">
        <ele>231.39999389648</ele>
        <time>2022-05-14T13:07:30.000Z</time>
      </trkpt>
      <trkpt lat="46.29844" lon="4.74292">
        <ele>230.39999389648</ele>
        <time>2022-05-14T13:07:33.000Z</time>
      </trkpt>
      <trkpt lat="46.29863" lon="4.74297">
        <ele>230.39999389648</ele>
        <time>2022-05-14T13:07:39.000Z</time>
      </trkpt>
      <trkpt lat="46.2987" lon="4.74291">
        <ele>231</ele>
        <time>2022-05-14T13:07:46.000Z</time>
      </trkpt>
      <trkpt lat="46.29878" lon="4.74292">
        <ele>231.19999694824</ele>
        <time>2022-05-14T13:07:52.000Z</time>
      </trkpt>
      <trkpt lat="46.29884" lon="4.74294">
        <ele>231.39999389648</ele>
        <time>2022-05-14T13:07:54.000Z</time>
      </trkpt>
      <trkpt lat="46.29894" lon="4.74323">
        <ele>230</ele>
        <time>2022-05-14T13:08:00.000Z</time>
      </trkpt>
      <trkpt lat="46.29902" lon="4.74361">
        <ele>229</ele>
        <time>2022-05-14T13:08:08.000Z</time>
      </trkpt>
      <trkpt lat="46.29946" lon="4.74347">
        <ele>232.19999694824</ele>
        <time>2022-05-14T13:08:18.000Z</time>
      </trkpt>
      <trkpt lat="46.29977" lon="4.74334">
        <ele>235</ele>
        <time>2022-05-14T13:08:28.000Z</time>
      </trkpt>
      <trkpt lat="46.29986" lon="4.74349">
        <ele>234</ele>
        <time>2022-05-14T13:08:34.000Z</time>
      </trkpt>
      <trkpt lat="46.29988" lon="4.74349">
        <ele>234.19999694824</ele>
        <time>2022-05-14T13:08:35.000Z</time>
      </trkpt>
      <trkpt lat="46.29996" lon="4.74328">
        <ele>235.80000305176</ele>
        <time>2022-05-14T13:08:41.000Z</time>
      </trkpt>
      <trkpt lat="46.30002" lon="4.74305">
        <ele>237.39999389648</ele>
        <time>2022-05-14T13:08:45.000Z</time>
      </trkpt>
      <trkpt lat="46.30013" lon="4.7427">
        <ele>240</ele>
        <time>2022-05-14T13:08:51.000Z</time>
      </trkpt>
      <trkpt lat="46.30006" lon="4.74216">
        <ele>244.39999389648</ele>
        <time>2022-05-14T13:09:00.000Z</time>
      </trkpt>
      <trkpt lat="46.29999" lon="4.74184">
        <ele>247.60000610352</ele>
        <time>2022-05-14T13:09:05.000Z</time>
      </trkpt>
      <trkpt lat="46.29987" lon="4.74136">
        <ele>254.39999389648</ele>
        <time>2022-05-14T13:09:13.000Z</time>
      </trkpt>
      <trkpt lat="46.29979" lon="4.74107">
        <ele>258.60000610352</ele>
        <time>2022-05-14T13:09:18.000Z</time>
      </trkpt>
      <trkpt lat="46.29972" lon="4.74085">
        <ele>261.60000610352</ele>
        <time>2022-05-14T13:09:22.000Z</time>
      </trkpt>
      <trkpt lat="46.29965" lon="4.74058">
        <ele>264.39999389648</ele>
        <time>2022-05-14T13:09:27.000Z</time>
      </trkpt>
      <trkpt lat="46.29958" lon="4.7404">
        <ele>266.60000610352</ele>
        <time>2022-05-14T13:09:31.000Z</time>
      </trkpt>
      <trkpt lat="46.29946" lon="4.74024">
        <ele>268</ele>
        <time>2022-05-14T13:09:36.000Z</time>
      </trkpt>
      <trkpt lat="46.29942" lon="4.74018">
        <ele>268.60000610352</ele>
        <time>2022-05-14T13:09:38.000Z</time>
      </trkpt>
      <trkpt lat="46.29952" lon="4.74012">
        <ele>270.20001220703</ele>
        <time>2022-05-14T13:09:44.000Z</time>
      </trkpt>
      <trkpt lat="46.29955" lon="4.74013">
        <ele>270.39999389648</ele>
        <time>2022-05-14T13:09:45.000Z</time>
      </trkpt>
      <trkpt lat="46.29989" lon="4.74016">
        <ele>271.39999389648</ele>
        <time>2022-05-14T13:09:53.000Z</time>
      </trkpt>
      <trkpt lat="46.3003" lon="4.74023">
        <ele>270.39999389648</ele>
        <time>2022-05-14T13:10:04.000Z</time>
      </trkpt>
      <trkpt lat="46.30077" lon="4.74053">
        <ele>264.79998779297</ele>
        <time>2022-05-14T13:10:12.000Z</time>
      </trkpt>
      <trkpt lat="46.30089" lon="4.74058">
        <ele>263.60000610352</ele>
        <time>2022-05-14T13:10:14.000Z</time>
      </trkpt>
      <trkpt lat="46.30112" lon="4.74065">
        <ele>261.20001220703</ele>
        <time>2022-05-14T13:10:19.000Z</time>
      </trkpt>
      <trkpt lat="46.30115" lon="4.74067">
        <ele>260.60000610352</ele>
        <time>2022-05-14T13:10:20.000Z</time>
      </trkpt>
      <trkpt lat="46.30123" lon="4.74076">
        <ele>258.79998779297</ele>
        <time>2022-05-14T13:10:23.000Z</time>
      </trkpt>
      <trkpt lat="46.30151" lon="4.74081">
        <ele>254.80000305176</ele>
        <time>2022-05-14T13:10:32.000Z</time>
      </trkpt>
      <trkpt lat="46.30167" lon="4.74088">
        <ele>249.80000305176</ele>
        <time>2022-05-14T13:10:37.000Z</time>
      </trkpt>
      <trkpt lat="46.30189" lon="4.74084">
        <ele>241.80000305176</ele>
        <time>2022-05-14T13:10:45.000Z</time>
      </trkpt>
      <trkpt lat="46.3019" lon="4.7408">
        <ele>241.80000305176</ele>
        <time>2022-05-14T13:10:46.000Z</time>
      </trkpt>
      <trkpt lat="46.30199" lon="4.74036">
        <ele>242.19999694824</ele>
        <time>2022-05-14T13:10:52.000Z</time>
      </trkpt>
      <trkpt lat="46.30211" lon="4.74027">
        <ele>238.39999389648</ele>
        <time>2022-05-14T13:10:59.000Z</time>
      </trkpt>
      <trkpt lat="46.30213" lon="4.74045">
        <ele>237.60000610352</ele>
        <time>2022-05-14T13:11:02.000Z</time>
      </trkpt>
      <trkpt lat="46.30216" lon="4.74063">
        <ele>236.19999694824</ele>
        <time>2022-05-14T13:11:05.000Z</time>
      </trkpt>
      <trkpt lat="46.30218" lon="4.74088">
        <ele>232</ele>
        <time>2022-05-14T13:11:09.000Z</time>
      </trkpt>
      <trkpt lat="46.30221" lon="4.74109">
        <ele>229.19999694824</ele>
        <time>2022-05-14T13:11:12.000Z</time>
      </trkpt>
      <trkpt lat="46.30223" lon="4.74117">
        <ele>228</ele>
        <time>2022-05-14T13:11:13.000Z</time>
      </trkpt>
      <trkpt lat="46.30226" lon="4.74133">
        <ele>226.80000305176</ele>
        <time>2022-05-14T13:11:15.000Z</time>
      </trkpt>
      <trkpt lat="46.30234" lon="4.74154">
        <ele>225.19999694824</ele>
        <time>2022-05-14T13:11:18.000Z</time>
      </trkpt>
      <trkpt lat="46.30241" lon="4.74166">
        <ele>224.39999389648</ele>
        <time>2022-05-14T13:11:20.000Z</time>
      </trkpt>
      <trkpt lat="46.30248" lon="4.74179">
        <ele>223.60000610352</ele>
        <time>2022-05-14T13:11:23.000Z</time>
      </trkpt>
      <trkpt lat="46.3025" lon="4.74199">
        <ele>223.39999389648</ele>
        <time>2022-05-14T13:11:27.000Z</time>
      </trkpt>
      <trkpt lat="46.30271" lon="4.74218">
        <ele>220.60000610352</ele>
        <time>2022-05-14T13:11:32.000Z</time>
      </trkpt>
      <trkpt lat="46.30282" lon="4.74222">
        <ele>220</ele>
        <time>2022-05-14T13:11:34.000Z</time>
      </trkpt>
      <trkpt lat="46.3033" lon="4.74226">
        <ele>220.19999694824</ele>
        <time>2022-05-14T13:11:42.000Z</time>
      </trkpt>
      <trkpt lat="46.30335" lon="4.74226">
        <ele>220.60000610352</ele>
        <time>2022-05-14T13:11:43.000Z</time>
      </trkpt>
      <trkpt lat="46.3036" lon="4.74233">
        <ele>222.39999389648</ele>
        <time>2022-05-14T13:11:48.000Z</time>
      </trkpt>
      <trkpt lat="46.30424" lon="4.74272">
        <ele>227.60000610352</ele>
        <time>2022-05-14T13:12:02.000Z</time>
      </trkpt>
      <trkpt lat="46.30437" lon="4.7428">
        <ele>227.39999389648</ele>
        <time>2022-05-14T13:12:05.000Z</time>
      </trkpt>
      <trkpt lat="46.30483" lon="4.7432">
        <ele>231.80000305176</ele>
        <time>2022-05-14T13:12:17.000Z</time>
      </trkpt>
      <trkpt lat="46.30517" lon="4.74393">
        <ele>231.60000610352</ele>
        <time>2022-05-14T13:12:31.000Z</time>
      </trkpt>
      <trkpt lat="46.30522" lon="4.74403">
        <ele>231.80000305176</ele>
        <time>2022-05-14T13:12:33.000Z</time>
      </trkpt>
      <trkpt lat="46.30543" lon="4.74423">
        <ele>234</ele>
        <time>2022-05-14T13:12:39.000Z</time>
      </trkpt>
      <trkpt lat="46.30599" lon="4.74451">
        <ele>237.60000610352</ele>
        <time>2022-05-14T13:12:54.000Z</time>
      </trkpt>
      <trkpt lat="46.30631" lon="4.7451">
        <ele>239.80000305176</ele>
        <time>2022-05-14T13:13:07.000Z</time>
      </trkpt>
      <trkpt lat="46.30654" lon="4.74548">
        <ele>239.60000610352</ele>
        <time>2022-05-14T13:13:17.000Z</time>
      </trkpt>
      <trkpt lat="46.30668" lon="4.74541">
        <ele>239.60000610352</ele>
        <time>2022-05-14T13:13:22.000Z</time>
      </trkpt>
      <trkpt lat="46.30679" lon="4.74523">
        <ele>239.80000305176</ele>
        <time>2022-05-14T13:13:26.000Z</time>
      </trkpt>
      <trkpt lat="46.30686" lon="4.74502">
        <ele>239.2</ele>
      </trkpt>
      <trkpt lat="46.30708" lon="4.74508">
        <ele>238.3</ele>
        <time>2022-05-14T13:13:38.000Z</time>
      </trkpt>
      <trkpt lat="46.30721" lon="4.74508">
        <ele>237.8</ele>
        <time>2022-05-14T13:13:49.000Z</time>
      </trkpt>
      <trkpt lat="46.30727" lon="4.74505">
        <ele>237.39999389648</ele>
        <time>2022-05-14T13:13:54.000Z</time>
      </trkpt>
      <trkpt lat="46.30744" lon="4.74512">
        <ele>235.80000305176</ele>
        <time>2022-05-14T13:14:01.000Z</time>
      </trkpt>
      <trkpt lat="46.30746" lon="4.74501">
        <ele>236</ele>
        <time>2022-05-14T13:14:03.000Z</time>
      </trkpt>
      <trkpt lat="46.30753" lon="4.74426">
        <ele>238</ele>
        <time>2022-05-14T13:14:16.000Z</time>
      </trkpt>
      <trkpt lat="46.30766" lon="4.74421">
        <ele>236.60000610352</ele>
        <time>2022-05-14T13:14:21.000Z</time>
      </trkpt>
      <trkpt lat="46.30837" lon="4.74424">
        <ele>232</ele>
        <time>2022-05-14T13:14:33.000Z</time>
      </trkpt>
      <trkpt lat="46.30845" lon="4.74424">
        <ele>232</ele>
        <time>2022-05-14T13:14:35.000Z</time>
      </trkpt>
      <trkpt lat="46.30871" lon="4.74411">
        <ele>233.60000610352</ele>
        <time>2022-05-14T13:14:42.000Z</time>
      </trkpt>
      <trkpt lat="46.30941" lon="4.74403">
        <ele>241.60000610352</ele>
        <time>2022-05-14T13:14:58.000Z</time>
      </trkpt>
      <trkpt lat="46.30941" lon="4.74384">
        <ele>243</ele>
        <time>2022-05-14T13:15:03.000Z</time>
      </trkpt>
      <trkpt lat="46.30934" lon="4.74368">
        <ele>243.39999389648</ele>
        <time>2022-05-14T13:15:06.000Z</time>
      </trkpt>
      <trkpt lat="46.30925" lon="4.74339">
        <ele>244</ele>
        <time>2022-05-14T13:15:11.000Z</time>
      </trkpt>
      <trkpt lat="46.30914" lon="4.74295">
        <ele>244.60000610352</ele>
        <time>2022-05-14T13:15:18.000Z</time>
      </trkpt>
      <trkpt lat="46.30909" lon="4.74269">
        <ele>246.39999389648</ele>
        <time>2022-05-14T13:15:22.000Z</time>
      </trkpt>
      <trkpt lat="46.30907" lon="4.74257">
        <ele>247.19999694824</ele>
        <time>2022-05-14T13:15:24.000Z</time>
      </trkpt>
      <trkpt lat="46.30921" lon="4.74239">
        <ele>250</ele>
        <time>2022-05-14T13:15:30.000Z</time>
      </trkpt>
      <trkpt lat="46.30938" lon="4.74218">
        <ele>252.19999694824</ele>
        <time>2022-05-14T13:15:36.000Z</time>
      </trkpt>
      <trkpt lat="46.30944" lon="4.74197">
        <ele>253.60000610352</ele>
        <time>2022-05-14T13:15:40.000Z</time>
      </trkpt>
      <trkpt lat="46.30947" lon="4.74153">
        <ele>255.60000610352</ele>
        <time>2022-05-14T13:15:47.000Z</time>
      </trkpt>
      <trkpt lat="46.3095" lon="4.74119">
        <ele>258</ele>
        <time>2022-05-14T13:15:52.000Z</time>
      </trkpt>
      <trkpt lat="46.30968" lon="4.74086">
        <ele>261.20001220703</ele>
        <time>2022-05-14T13:16:00.000Z</time>
      </trkpt>
      <trkpt lat="46.30985" lon="4.74088">
        <ele>263.79998779297</ele>
        <time>2022-05-14T13:16:04.000Z</time>
      </trkpt>
      <trkpt lat="46.30998" lon="4.74071">
        <ele>266</ele>
        <time>2022-05-14T13:16:09.000Z</time>
      </trkpt>
      <trkpt lat="46.30998" lon="4.74058">
        <ele>266.39999389648</ele>
        <time>2022-05-14T13:16:11.000Z</time>
      </trkpt>
      <trkpt lat="46.31003" lon="4.74033">
        <ele>266.79998779297</ele>
        <time>2022-05-14T13:16:15.000Z</time>
      </trkpt>
      <trkpt lat="46.31012" lon="4.74004">
        <ele>267.79998779297</ele>
        <time>2022-05-14T13:16:20.000Z</time>
      </trkpt>
      <trkpt lat="46.31014" lon="4.7397">
        <ele>268.20001220703</ele>
        <time>2022-05-14T13:16:25.000Z</time>
      </trkpt>
      <trkpt lat="46.31018" lon="4.7395">
        <ele>269.39999389648</ele>
        <time>2022-05-14T13:16:28.000Z</time>
      </trkpt>
      <trkpt lat="46.31022" lon="4.73938">
        <ele>270.39999389648</ele>
        <time>2022-05-14T13:16:30.000Z</time>
      </trkpt>
      <trkpt lat="46.31036" lon="4.73922">
        <ele>272.60000610352</ele>
        <time>2022-05-14T13:16:34.000Z</time>
      </trkpt>
      <trkpt lat="46.31065" lon="4.73917">
        <ele>275.79998779297</ele>
        <time>2022-05-14T13:16:40.000Z</time>
      </trkpt>
      <trkpt lat="46.31086" lon="4.73905">
        <ele>278.20001220703</ele>
        <time>2022-05-14T13:16:45.000Z</time>
      </trkpt>
      <trkpt lat="46.31102" lon="4.73892">
        <ele>279.79998779297</ele>
        <time>2022-05-14T13:16:49.000Z</time>
      </trkpt>
      <trkpt lat="46.31123" lon="4.73881">
        <ele>281.20001220703</ele>
        <time>2022-05-14T13:16:54.000Z</time>
      </trkpt>
      <trkpt lat="46.31136" lon="4.73879">
        <ele>282.39999389648</ele>
        <time>2022-05-14T13:16:57.000Z</time>
      </trkpt>
      <trkpt lat="46.31148" lon="4.73874">
        <ele>283.60000610352</ele>
        <time>2022-05-14T13:17:00.000Z</time>
      </trkpt>
      <trkpt lat="46.31159" lon="4.73855">
        <ele>285.20001220703</ele>
        <time>2022-05-14T13:17:04.000Z</time>
      </trkpt>
      <trkpt lat="46.31162" lon="4.73842">
        <ele>286</ele>
        <time>2022-05-14T13:17:06.000Z</time>
      </trkpt>
      <trkpt lat="46.31174" lon="4.73787">
        <ele>288.39999389648</ele>
        <time>2022-05-14T13:17:15.000Z</time>
      </trkpt>
      <trkpt lat="46.31184" lon="4.73729">
        <ele>289.79998779297</ele>
        <time>2022-05-14T13:17:25.000Z</time>
      </trkpt>
      <trkpt lat="46.312" lon="4.73647">
        <ele>292.79998779297</ele>
        <time>2022-05-14T13:17:41.000Z</time>
      </trkpt>
      <trkpt lat="46.31214" lon="4.73573">
        <ele>292.39999389648</ele>
        <time>2022-05-14T13:17:55.000Z</time>
      </trkpt>
      <trkpt lat="46.31217" lon="4.73567">
        <ele>292.39999389648</ele>
        <time>2022-05-14T13:17:56.000Z</time>
      </trkpt>
      <trkpt lat="46.31258" lon="4.73478">
        <ele>291.39999389648</ele>
        <time>2022-05-14T13:18:10.000Z</time>
      </trkpt>
      <trkpt lat="46.31266" lon="4.73465">
        <ele>291.60000610352</ele>
        <time>2022-05-14T13:18:12.000Z</time>
      </trkpt>
      <trkpt lat="46.31295" lon="4.73431">
        <ele>290.20001220703</ele>
        <time>2022-05-14T13:18:18.000Z</time>
      </trkpt>
      <trkpt lat="46.31309" lon="4.73408">
        <ele>289.39999389648</ele>
        <time>2022-05-14T13:18:22.000Z</time>
      </trkpt>
      <trkpt lat="46.3136" lon="4.73344">
        <ele>287.60000610352</ele>
        <time>2022-05-14T13:18:35.000Z</time>
      </trkpt>
      <trkpt lat="46.31389" lon="4.73299">
        <ele>288.60000610352</ele>
        <time>2022-05-14T13:18:43.000Z</time>
      </trkpt>
      <trkpt lat="46.31396" lon="4.73272">
        <ele>291</ele>
        <time>2022-05-14T13:18:47.000Z</time>
      </trkpt>
      <trkpt lat="46.31411" lon="4.73245">
        <ele>292.79998779297</ele>
        <time>2022-05-14T13:18:52.000Z</time>
      </trkpt>
      <trkpt lat="46.31456" lon="4.73196">
        <ele>292.79998779297</ele>
        <time>2022-05-14T13:19:03.000Z</time>
      </trkpt>
      <trkpt lat="46.31527" lon="4.73122">
        <ele>294.39999389648</ele>
        <time>2022-05-14T13:19:20.000Z</time>
      </trkpt>
      <trkpt lat="46.31599" lon="4.7305">
        <ele>296.79998779297</ele>
        <time>2022-05-14T13:19:38.000Z</time>
      </trkpt>
      <trkpt lat="46.31646" lon="4.7299">
        <ele>298.39999389648</ele>
        <time>2022-05-14T13:19:53.000Z</time>
      </trkpt>
      <trkpt lat="46.3167" lon="4.72957">
        <ele>297.79998779297</ele>
        <time>2022-05-14T13:20:02.000Z</time>
      </trkpt>
      <trkpt lat="46.31696" lon="4.72902">
        <ele>303.3</ele>
        <time>2022-05-14T13:20:06.000Z</time>
      </trkpt>
      <trkpt lat="46.31731" lon="4.72847">
        <ele>302.9</ele>
        <time>2022-05-14T13:20:16.000Z</time>
      </trkpt>
      <trkpt lat="46.31776" lon="4.72771">
        <ele>303.8</ele>
        <time>2022-05-14T13:20:19.000Z</time>
      </trkpt>
      <trkpt lat="46.31816" lon="4.72708">
        <ele>303.1</ele>
        <time>2022-05-14T13:20:21.000Z</time>
      </trkpt>
      <trkpt lat="46.3185" lon="4.72631">
        <ele>302.1</ele>
        <time>2022-05-14T13:22:25.000Z</time>
      </trkpt>
      <trkpt lat="46.31875" lon="4.72574">
        <ele>301.9</ele>
        <time>2022-05-14T13:22:29.000Z</time>
      </trkpt>
      <trkpt lat="46.31913" lon="4.72527">
        <ele>299.7</ele>
        <time>2022-05-14T13:22:34.000Z</time>
      </trkpt>
      <trkpt lat="46.31937" lon="4.72514">
        <ele>298.3</ele>
        <time>2022-05-14T13:22:38.000Z</time>
      </trkpt>
      <trkpt lat="46.31982" lon="4.72511">
        <ele>295.1</ele>
        <time>2022-05-14T13:22:43.000Z</time>
      </trkpt>
      <trkpt lat="46.31999" lon="4.72494">
        <ele>296.2</ele>
        <time>2022-05-14T13:24:49.000Z</time>
      </trkpt>
      <trkpt lat="46.32019" lon="4.72412">
        <ele>302.9</ele>
        <time>2022-05-14T13:25:03.000Z</time>
      </trkpt>
      <trkpt lat="46.32033" lon="4.72353">
        <ele>307.5</ele>
        <time>2022-05-14T13:25:12.000Z</time>
      </trkpt>
      <trkpt lat="46.32058" lon="4.72294">
        <ele>314.5</ele>
        <time>2022-05-14T13:25:35.000Z</time>
      </trkpt>
      <trkpt lat="46.32076" lon="4.72266">
        <ele>319.3</ele>
        <time>2022-05-14T13:26:02.000Z</time>
      </trkpt>
      <trkpt lat="46.32093" lon="4.72231">
        <ele>324.60000610352</ele>
        <time>2022-05-14T13:26:11.000Z</time>
      </trkpt>
      <trkpt lat="46.32107" lon="4.72201">
        <ele>329.20001220703</ele>
        <time>2022-05-14T13:26:17.000Z</time>
      </trkpt>
      <trkpt lat="46.32119" lon="4.72148">
        <ele>334.20001220703</ele>
        <time>2022-05-14T13:26:26.000Z</time>
      </trkpt>
      <trkpt lat="46.32122" lon="4.72128">
        <ele>335.20001220703</ele>
        <time>2022-05-14T13:26:29.000Z</time>
      </trkpt>
      <trkpt lat="46.32126" lon="4.72116">
        <ele>336.79998779297</ele>
        <time>2022-05-14T13:26:31.000Z</time>
      </trkpt>
      <trkpt lat="46.32132" lon="4.72099">
        <ele>338.60000610352</ele>
        <time>2022-05-14T13:26:34.000Z</time>
      </trkpt>
      <trkpt lat="46.32147" lon="4.72056">
        <ele>344.60000610352</ele>
        <time>2022-05-14T13:26:42.000Z</time>
      </trkpt>
      <trkpt lat="46.32161" lon="4.72029">
        <ele>348.79998779297</ele>
        <time>2022-05-14T13:26:48.000Z</time>
      </trkpt>
      <trkpt lat="46.3217" lon="4.7201">
        <ele>351.20001220703</ele>
        <time>2022-05-14T13:26:53.000Z</time>
      </trkpt>
      <trkpt lat="46.32179" lon="4.71986">
        <ele>354.39999389648</ele>
        <time>2022-05-14T13:26:58.000Z</time>
      </trkpt>
      <trkpt lat="46.32187" lon="4.71962">
        <ele>356.60000610352</ele>
        <time>2022-05-14T13:27:03.000Z</time>
      </trkpt>
      <trkpt lat="46.32199" lon="4.71942">
        <ele>359</ele>
        <time>2022-05-14T13:27:08.000Z</time>
      </trkpt>
      <trkpt lat="46.32207" lon="4.71909">
        <ele>361.39999389648</ele>
        <time>2022-05-14T13:27:15.000Z</time>
      </trkpt>
      <trkpt lat="46.32208" lon="4.71885">
        <ele>363</ele>
        <time>2022-05-14T13:27:22.000Z</time>
      </trkpt>
      <trkpt lat="46.32171" lon="4.71843">
        <ele>363.20001220703</ele>
        <time>2022-05-14T13:27:35.000Z</time>
      </trkpt>
      <trkpt lat="46.32126" lon="4.71817">
        <ele>362</ele>
        <time>2022-05-14T13:27:48.000Z</time>
      </trkpt>
      <trkpt lat="46.32066" lon="4.71813">
        <ele>355</ele>
        <time>2022-05-14T13:28:04.000Z</time>
      </trkpt>
      <trkpt lat="46.32064" lon="4.71811">
        <ele>355</ele>
        <time>2022-05-14T13:28:05.000Z</time>
      </trkpt>
      <trkpt lat="46.32067" lon="4.71764">
        <ele>356.39999389648</ele>
        <time>2022-05-14T13:28:15.000Z</time>
      </trkpt>
      <trkpt lat="46.3209" lon="4.71664">
        <ele>351.60000610352</ele>
        <time>2022-05-14T13:28:28.000Z</time>
      </trkpt>
      <trkpt lat="46.32104" lon="4.71617">
        <ele>349</ele>
        <time>2022-05-14T13:28:33.000Z</time>
      </trkpt>
      <trkpt lat="46.32109" lon="4.71585">
        <ele>347</ele>
        <time>2022-05-14T13:28:38.000Z</time>
      </trkpt>
      <trkpt lat="46.32119" lon="4.71549">
        <ele>345.20001220703</ele>
        <time>2022-05-14T13:28:43.000Z</time>
      </trkpt>
      <trkpt lat="46.32138" lon="4.71486">
        <ele>342.39999389648</ele>
        <time>2022-05-14T13:28:50.000Z</time>
      </trkpt>
      <trkpt lat="46.32143" lon="4.71468">
        <ele>341.20001220703</ele>
        <time>2022-05-14T13:28:52.000Z</time>
      </trkpt>
      <trkpt lat="46.32149" lon="4.7145">
        <ele>340.60000610352</ele>
        <time>2022-05-14T13:28:54.000Z</time>
      </trkpt>
      <trkpt lat="46.32152" lon="4.71431">
        <ele>340</ele>
        <time>2022-05-14T13:28:56.000Z</time>
      </trkpt>
      <trkpt lat="46.32152" lon="4.71402">
        <ele>339.20001220703</ele>
        <time>2022-05-14T13:28:59.000Z</time>
      </trkpt>
      <trkpt lat="46.32149" lon="4.71377">
        <ele>339.39999389648</ele>
        <time>2022-05-14T13:29:02.000Z</time>
      </trkpt>
      <trkpt lat="46.3216" lon="4.71297">
        <ele>341.60000610352</ele>
        <time>2022-05-14T13:29:13.000Z</time>
      </trkpt>
      <trkpt lat="46.32161" lon="4.71289">
        <ele>341.79998779297</ele>
        <time>2022-05-14T13:29:14.000Z</time>
      </trkpt>
      <trkpt lat="46.32164" lon="4.71269">
        <ele>343</ele>
        <time>2022-05-14T13:29:17.000Z</time>
      </trkpt>
      <trkpt lat="46.32166" lon="4.7124">
        <ele>344.39999389648</ele>
        <time>2022-05-14T13:29:21.000Z</time>
      </trkpt>
      <trkpt lat="46.32176" lon="4.71163">
        <ele>348.60000610352</ele>
        <time>2022-05-14T13:29:33.000Z</time>
      </trkpt>
      <trkpt lat="46.3218" lon="4.71147">
        <ele>349.79998779297</ele>
        <time>2022-05-14T13:29:37.000Z</time>
      </trkpt>
      <trkpt lat="46.32185" lon="4.71114">
        <ele>352.39999389648</ele>
        <time>2022-05-14T13:29:44.000Z</time>
      </trkpt>
      <trkpt lat="46.32186" lon="4.71107">
        <ele>352.79998779297</ele>
        <time>2022-05-14T13:29:46.000Z</time>
      </trkpt>
      <trkpt lat="46.32193" lon="4.71089">
        <ele>354</ele>
        <time>2022-05-14T13:29:50.000Z</time>
      </trkpt>
      <trkpt lat="46.32194" lon="4.71077">
        <ele>354.79998779297</ele>
        <time>2022-05-14T13:29:52.000Z</time>
      </trkpt>
      <trkpt lat="46.32205" lon="4.71043">
        <ele>356.20001220703</ele>
        <time>2022-05-14T13:29:58.000Z</time>
      </trkpt>
      <trkpt lat="46.32228" lon="4.71009">
        <ele>356.60000610352</ele>
        <time>2022-05-14T13:30:06.000Z</time>
      </trkpt>
      <trkpt lat="46.32232" lon="4.70998">
        <ele>357</ele>
        <time>2022-05-14T13:30:08.000Z</time>
      </trkpt>
      <trkpt lat="46.32231" lon="4.70974">
        <ele>357.60000610352</ele>
        <time>2022-05-14T13:30:12.000Z</time>
      </trkpt>
      <trkpt lat="46.32212" lon="4.70942">
        <ele>361</ele>
        <time>2022-05-14T13:30:19.000Z</time>
      </trkpt>
      <trkpt lat="46.32185" lon="4.70904">
        <ele>365.60000610352</ele>
        <time>2022-05-14T13:30:29.000Z</time>
      </trkpt>
      <trkpt lat="46.32174" lon="4.70872">
        <ele>368.20001220703</ele>
        <time>2022-05-14T13:30:35.000Z</time>
      </trkpt>
      <trkpt lat="46.3217" lon="4.70847">
        <ele>370.20001220703</ele>
        <time>2022-05-14T13:30:40.000Z</time>
      </trkpt>
      <trkpt lat="46.32168" lon="4.7081">
        <ele>375.60000610352</ele>
        <time>2022-05-14T13:30:47.000Z</time>
      </trkpt>
      <trkpt lat="46.32169" lon="4.70768">
        <ele>382.20001220703</ele>
        <time>2022-05-14T13:30:54.000Z</time>
      </trkpt>
      <trkpt lat="46.32169" lon="4.70731">
        <ele>385.39999389648</ele>
        <time>2022-05-14T13:31:00.000Z</time>
      </trkpt>
      <trkpt lat="46.32168" lon="4.70721">
        <ele>386</ele>
        <time>2022-05-14T13:31:02.000Z</time>
      </trkpt>
      <trkpt lat="46.32172" lon="4.70686">
        <ele>388</ele>
        <time>2022-05-14T13:31:08.000Z</time>
      </trkpt>
      <trkpt lat="46.3218" lon="4.70649">
        <ele>392</ele>
        <time>2022-05-14T13:31:15.000Z</time>
      </trkpt>
      <trkpt lat="46.32195" lon="4.70621">
        <ele>397.60000610352</ele>
        <time>2022-05-14T13:31:23.000Z</time>
      </trkpt>
      <trkpt lat="46.32227" lon="4.70591">
        <ele>400.20001220703</ele>
        <time>2022-05-14T13:31:33.000Z</time>
      </trkpt>
      <trkpt lat="46.32242" lon="4.70582">
        <ele>400</ele>
        <time>2022-05-14T13:31:37.000Z</time>
      </trkpt>
      <trkpt lat="46.32289" lon="4.70552">
        <ele>401.60000610352</ele>
        <time>2022-05-14T13:31:50.000Z</time>
      </trkpt>
      <trkpt lat="46.32324" lon="4.70544">
        <ele>399.39999389648</ele>
        <time>2022-05-14T13:32:00.000Z</time>
      </trkpt>
      <trkpt lat="46.32363" lon="4.70526">
        <ele>401</ele>
        <time>2022-05-14T13:32:10.000Z</time>
      </trkpt>
      <trkpt lat="46.32376" lon="4.70514">
        <ele>400.79998779297</ele>
        <time>2022-05-14T13:32:14.000Z</time>
      </trkpt>
      <trkpt lat="46.32385" lon="4.70495">
        <ele>401</ele>
        <time>2022-05-14T13:32:20.000Z</time>
      </trkpt>
      <trkpt lat="46.32386" lon="4.70494">
        <ele>401</ele>
        <time>2022-05-14T13:32:24.000Z</time>
      </trkpt>
      <trkpt lat="46.32387" lon="4.70486">
        <ele>400.79998779297</ele>
        <time>2022-05-14T13:33:24.000Z</time>
      </trkpt>
      <trkpt lat="46.32378" lon="4.70421">
        <ele>397</ele>
        <time>2022-05-14T13:33:34.000Z</time>
      </trkpt>
      <trkpt lat="46.32377" lon="4.70413">
        <ele>396.20001220703</ele>
        <time>2022-05-14T13:33:35.000Z</time>
      </trkpt>
      <trkpt lat="46.32365" lon="4.70373">
        <ele>391.60000610352</ele>
        <time>2022-05-14T13:33:40.000Z</time>
      </trkpt>
      <trkpt lat="46.32352" lon="4.70334">
        <ele>388.20001220703</ele>
        <time>2022-05-14T13:33:45.000Z</time>
      </trkpt>
      <trkpt lat="46.32347" lon="4.70317">
        <ele>386.39999389648</ele>
        <time>2022-05-14T13:33:52.000Z</time>
      </trkpt>
      <trkpt lat="46.32347" lon="4.70317">
        <ele>386.39999389648</ele>
        <time>2022-05-14T13:33:54.000Z</time>
      </trkpt>
      <trkpt lat="46.32344" lon="4.70307">
        <ele>385.60000610352</ele>
        <time>2022-05-14T13:37:53.000Z</time>
      </trkpt>
      <trkpt lat="46.32322" lon="4.70243">
        <ele>384.79998779297</ele>
        <time>2022-05-14T13:38:04.000Z</time>
      </trkpt>
      <trkpt lat="46.32273" lon="4.7015">
        <ele>383.60000610352</ele>
        <time>2022-05-14T13:38:18.000Z</time>
      </trkpt>
      <trkpt lat="46.32229" lon="4.70093">
        <ele>385.60000610352</ele>
        <time>2022-05-14T13:38:28.000Z</time>
      </trkpt>
      <trkpt lat="46.32197" lon="4.70032">
        <ele>384</ele>
        <time>2022-05-14T13:38:38.000Z</time>
      </trkpt>
      <trkpt lat="46.32183" lon="4.70004">
        <ele>383.20001220703</ele>
        <time>2022-05-14T13:38:43.000Z</time>
      </trkpt>
      <trkpt lat="46.3215" lon="4.69939">
        <ele>387.79998779297</ele>
        <time>2022-05-14T13:38:56.000Z</time>
      </trkpt>
      <trkpt lat="46.32139" lon="4.69908">
        <ele>387.60000610352</ele>
        <time>2022-05-14T13:39:01.000Z</time>
      </trkpt>
      <trkpt lat="46.32136" lon="4.69897">
        <ele>387.60000610352</ele>
        <time>2022-05-14T13:39:03.000Z</time>
      </trkpt>
      <trkpt lat="46.32139" lon="4.69843">
        <ele>384.39999389648</ele>
        <time>2022-05-14T13:39:13.000Z</time>
      </trkpt>
      <trkpt lat="46.32139" lon="4.69837">
        <ele>383.79998779297</ele>
        <time>2022-05-14T13:39:14.000Z</time>
      </trkpt>
      <trkpt lat="46.32149" lon="4.69721">
        <ele>380.60000610352</ele>
        <time>2022-05-14T13:39:30.000Z</time>
      </trkpt>
      <trkpt lat="46.32152" lon="4.69655">
        <ele>379.20001220703</ele>
        <time>2022-05-14T13:39:38.000Z</time>
      </trkpt>
      <trkpt lat="46.3215" lon="4.69511">
        <ele>375</ele>
        <time>2022-05-14T13:39:55.000Z</time>
      </trkpt>
      <trkpt lat="46.32133" lon="4.69462">
        <ele>372.39999389648</ele>
        <time>2022-05-14T13:40:04.000Z</time>
      </trkpt>
      <trkpt lat="46.32141" lon="4.69429">
        <ele>367.79998779297</ele>
        <time>2022-05-14T13:40:12.000Z</time>
      </trkpt>
      <trkpt lat="46.32133" lon="4.69425">
        <ele>367.39999389648</ele>
        <time>2022-05-14T13:40:16.000Z</time>
      </trkpt>
      <trkpt lat="46.32126" lon="4.69428">
        <ele>368</ele>
        <time>2022-05-14T13:40:18.000Z</time>
      </trkpt>
      <trkpt lat="46.32116" lon="4.6943">
        <ele>368.20001220703</ele>
        <time>2022-05-14T13:40:20.000Z</time>
      </trkpt>
      <trkpt lat="46.32095" lon="4.69414">
        <ele>366.20001220703</ele>
        <time>2022-05-14T13:40:24.000Z</time>
      </trkpt>
      <trkpt lat="46.32082" lon="4.69393">
        <ele>363.39999389648</ele>
        <time>2022-05-14T13:40:27.000Z</time>
      </trkpt>
      <trkpt lat="46.32073" lon="4.69377">
        <ele>360.20001220703</ele>
        <time>2022-05-14T13:40:29.000Z</time>
      </trkpt>
      <trkpt lat="46.32048" lon="4.69316">
        <ele>350.79998779297</ele>
        <time>2022-05-14T13:40:36.000Z</time>
      </trkpt>
      <trkpt lat="46.3203" lon="4.69278">
        <ele>352</ele>
        <time>2022-05-14T13:40:41.000Z</time>
      </trkpt>
      <trkpt lat="46.32019" lon="4.69257">
        <ele>352</ele>
        <time>2022-05-14T13:40:44.000Z</time>
      </trkpt>
      <trkpt lat="46.31989" lon="4.69211">
        <ele>351.39999389648</ele>
        <time>2022-05-14T13:40:52.000Z</time>
      </trkpt>
      <trkpt lat="46.31954" lon="4.69152">
        <ele>348.60000610352</ele>
        <time>2022-05-14T13:41:02.000Z</time>
      </trkpt>
      <trkpt lat="46.31912" lon="4.6912">
        <ele>346.39999389648</ele>
        <time>2022-05-14T13:41:15.000Z</time>
      </trkpt>
      <trkpt lat="46.31894" lon="4.6912">
        <ele>346.39999389648</ele>
        <time>2022-05-14T13:41:19.000Z</time>
      </trkpt>
      <trkpt lat="46.31839" lon="4.69142">
        <ele>349</ele>
        <time>2022-05-14T13:41:31.000Z</time>
      </trkpt>
      <trkpt lat="46.31805" lon="4.69164">
        <ele>350.20001220703</ele>
        <time>2022-05-14T13:41:43.000Z</time>
      </trkpt>
      <trkpt lat="46.31804" lon="4.69169">
        <ele>350.79998779297</ele>
        <time>2022-05-14T13:41:44.000Z</time>
      </trkpt>
      <trkpt lat="46.31784" lon="4.69204">
        <ele>355.60000610352</ele>
        <time>2022-05-14T13:41:55.000Z</time>
      </trkpt>
      <trkpt lat="46.31768" lon="4.69241">
        <ele>360.39999389648</ele>
        <time>2022-05-14T13:42:05.000Z</time>
      </trkpt>
      <trkpt lat="46.31762" lon="4.69248">
        <ele>361.60000610352</ele>
        <time>2022-05-14T13:42:08.000Z</time>
      </trkpt>
      <trkpt lat="46.31744" lon="4.69245">
        <ele>362</ele>
        <time>2022-05-14T13:42:14.000Z</time>
      </trkpt>
      <trkpt lat="46.31731" lon="4.69237">
        <ele>362</ele>
        <time>2022-05-14T13:42:18.000Z</time>
      </trkpt>
      <trkpt lat="46.31721" lon="4.69224">
        <ele>361.20001220703</ele>
        <time>2022-05-14T13:42:21.000Z</time>
      </trkpt>
      <trkpt lat="46.31694" lon="4.69208">
        <ele>362.39999389648</ele>
        <time>2022-05-14T13:42:28.000Z</time>
      </trkpt>
      <trkpt lat="46.31669" lon="4.69218">
        <ele>366.20001220703</ele>
        <time>2022-05-14T13:42:35.000Z</time>
      </trkpt>
      <trkpt lat="46.31655" lon="4.69208">
        <ele>366.60000610352</ele>
        <time>2022-05-14T13:42:41.000Z</time>
      </trkpt>
      <trkpt lat="46.31607" lon="4.69147">
        <ele>369.20001220703</ele>
        <time>2022-05-14T13:42:56.000Z</time>
      </trkpt>
      <trkpt lat="46.31584" lon="4.69137">
        <ele>372</ele>
        <time>2022-05-14T13:43:02.000Z</time>
      </trkpt>
      <trkpt lat="46.31562" lon="4.69125">
        <ele>372.39999389648</ele>
        <time>2022-05-14T13:43:08.000Z</time>
      </trkpt>
      <trkpt lat="46.31545" lon="4.69114">
        <ele>372.20001220703</ele>
        <time>2022-05-14T13:43:14.000Z</time>
      </trkpt>
      <trkpt lat="46.31496" lon="4.69111">
        <ele>375.39999389648</ele>
        <time>2022-05-14T13:43:28.000Z</time>
      </trkpt>
      <trkpt lat="46.3148" lon="4.69115">
        <ele>376.60000610352</ele>
        <time>2022-05-14T13:43:32.000Z</time>
      </trkpt>
      <trkpt lat="46.31448" lon="4.69139">
        <ele>382.79998779297</ele>
        <time>2022-05-14T13:43:41.000Z</time>
      </trkpt>
      <trkpt lat="46.31449" lon="4.69154">
        <ele>386.39999389648</ele>
        <time>2022-05-14T13:43:46.000Z</time>
      </trkpt>
      <trkpt lat="46.31464" lon="4.69168">
        <ele>388.39999389648</ele>
        <time>2022-05-14T13:43:51.000Z</time>
      </trkpt>
      <trkpt lat="46.31477" lon="4.69176">
        <ele>389</ele>
        <time>2022-05-14T13:43:54.000Z</time>
      </trkpt>
      <trkpt lat="46.31508" lon="4.69188">
        <ele>389.79998779297</ele>
        <time>2022-05-14T13:44:01.000Z</time>
      </trkpt>
      <trkpt lat="46.3153" lon="4.69198">
        <ele>391.20001220703</ele>
        <time>2022-05-14T13:44:06.000Z</time>
      </trkpt>
      <trkpt lat="46.31534" lon="4.69201">
        <ele>391.39999389648</ele>
        <time>2022-05-14T13:44:07.000Z</time>
      </trkpt>
      <trkpt lat="46.31542" lon="4.69209">
        <ele>392.39999389648</ele>
        <time>2022-05-14T13:44:09.000Z</time>
      </trkpt>
      <trkpt lat="46.31548" lon="4.69219">
        <ele>393.60000610352</ele>
        <time>2022-05-14T13:44:11.000Z</time>
      </trkpt>
      <trkpt lat="46.31555" lon="4.69273">
        <ele>396.79998779297</ele>
        <time>2022-05-14T13:44:20.000Z</time>
      </trkpt>
      <trkpt lat="46.31554" lon="4.69278">
        <ele>397.20001220703</ele>
        <time>2022-05-14T13:44:21.000Z</time>
      </trkpt>
      <trkpt lat="46.31548" lon="4.69295">
        <ele>398.79998779297</ele>
        <time>2022-05-14T13:44:24.000Z</time>
      </trkpt>
      <trkpt lat="46.31539" lon="4.69316">
        <ele>401.79998779297</ele>
        <time>2022-05-14T13:44:28.000Z</time>
      </trkpt>
      <trkpt lat="46.31533" lon="4.69332">
        <ele>404</ele>
        <time>2022-05-14T13:44:31.000Z</time>
      </trkpt>
      <trkpt lat="46.31527" lon="4.69355">
        <ele>406.20001220703</ele>
        <time>2022-05-14T13:44:35.000Z</time>
      </trkpt>
      <trkpt lat="46.31524" lon="4.6938">
        <ele>407.39999389648</ele>
        <time>2022-05-14T13:44:39.000Z</time>
      </trkpt>
      <trkpt lat="46.31524" lon="4.69387">
        <ele>407.60000610352</ele>
        <time>2022-05-14T13:44:40.000Z</time>
      </trkpt>
      <trkpt lat="46.31525" lon="4.69394">
        <ele>407.79998779297</ele>
        <time>2022-05-14T13:44:41.000Z</time>
      </trkpt>
      <trkpt lat="46.31526" lon="4.69401">
        <ele>408.39999389648</ele>
        <time>2022-05-14T13:44:42.000Z</time>
      </trkpt>
      <trkpt lat="46.31528" lon="4.69408">
        <ele>408.79998779297</ele>
        <time>2022-05-14T13:44:43.000Z</time>
      </trkpt>
      <trkpt lat="46.31535" lon="4.69424">
        <ele>409.79998779297</ele>
        <time>2022-05-14T13:44:46.000Z</time>
      </trkpt>
      <trkpt lat="46.31572" lon="4.69472">
        <ele>414.60000610352</ele>
        <time>2022-05-14T13:44:59.000Z</time>
      </trkpt>
      <trkpt lat="46.31601" lon="4.69503">
        <ele>417</ele>
        <time>2022-05-14T13:45:09.000Z</time>
      </trkpt>
      <trkpt lat="46.31621" lon="4.69524">
        <ele>419.79998779297</ele>
        <time>2022-05-14T13:45:16.000Z</time>
      </trkpt>
      <trkpt lat="46.31647" lon="4.69559">
        <ele>422.79998779297</ele>
        <time>2022-05-14T13:45:26.000Z</time>
      </trkpt>
      <trkpt lat="46.31666" lon="4.69583">
        <ele>424.60000610352</ele>
        <time>2022-05-14T13:45:33.000Z</time>
      </trkpt>
      <trkpt lat="46.31693" lon="4.6961">
        <ele>426.20001220703</ele>
        <time>2022-05-14T13:45:42.000Z</time>
      </trkpt>
      <trkpt lat="46.31726" lon="4.69635">
        <ele>432</ele>
        <time>2022-05-14T13:45:51.000Z</time>
      </trkpt>
      <trkpt lat="46.31783" lon="4.69662">
        <ele>435.60000610352</ele>
        <time>2022-05-14T13:46:03.000Z</time>
      </trkpt>
      <trkpt lat="46.31832" lon="4.69695">
        <ele>438.20001220703</ele>
        <time>2022-05-14T13:46:14.000Z</time>
      </trkpt>
      <trkpt lat="46.31865" lon="4.69755">
        <ele>441.60000610352</ele>
        <time>2022-05-14T13:46:25.000Z</time>
      </trkpt>
      <trkpt lat="46.31869" lon="4.69767">
        <ele>441.20001220703</ele>
        <time>2022-05-14T13:46:27.000Z</time>
      </trkpt>
      <trkpt lat="46.31874" lon="4.69786">
        <ele>440.79998779297</ele>
        <time>2022-05-14T13:46:30.000Z</time>
      </trkpt>
      <trkpt lat="46.31875" lon="4.69793">
        <ele>440.60000610352</ele>
        <time>2022-05-14T13:46:31.000Z</time>
      </trkpt>
      <trkpt lat="46.31877" lon="4.69799">
        <ele>440.39999389648</ele>
        <time>2022-05-14T13:46:32.000Z</time>
      </trkpt>
      <trkpt lat="46.31879" lon="4.69817">
        <ele>440.79998779297</ele>
        <time>2022-05-14T13:46:35.000Z</time>
      </trkpt>
      <trkpt lat="46.31879" lon="4.69824">
        <ele>441.60000610352</ele>
        <time>2022-05-14T13:46:36.000Z</time>
      </trkpt>
      <trkpt lat="46.31879" lon="4.69838">
        <ele>443</ele>
        <time>2022-05-14T13:46:38.000Z</time>
      </trkpt>
      <trkpt lat="46.31878" lon="4.69904">
        <ele>453</ele>
        <time>2022-05-14T13:46:50.000Z</time>
      </trkpt>
      <trkpt lat="46.31882" lon="4.69942">
        <ele>457.79998779297</ele>
        <time>2022-05-14T13:46:58.000Z</time>
      </trkpt>
      <trkpt lat="46.31887" lon="4.69965">
        <ele>459.79998779297</ele>
        <time>2022-05-14T13:47:02.000Z</time>
      </trkpt>
      <trkpt lat="46.31893" lon="4.6999">
        <ele>461</ele>
        <time>2022-05-14T13:47:07.000Z</time>
      </trkpt>
      <trkpt lat="46.31894" lon="4.69996">
        <ele>461.39999389648</ele>
        <time>2022-05-14T13:47:08.000Z</time>
      </trkpt>
      <trkpt lat="46.31901" lon="4.7003">
        <ele>464</ele>
        <time>2022-05-14T13:47:15.000Z</time>
      </trkpt>
      <trkpt lat="46.31916" lon="4.70075">
        <ele>466.60000610352</ele>
        <time>2022-05-14T13:47:24.000Z</time>
      </trkpt>
      <trkpt lat="46.3193" lon="4.70134">
        <ele>472.60000610352</ele>
        <time>2022-05-14T13:47:34.000Z</time>
      </trkpt>
      <trkpt lat="46.31932" lon="4.70168">
        <ele>475.79998779297</ele>
        <time>2022-05-14T13:47:41.000Z</time>
      </trkpt>
      <trkpt lat="46.31933" lon="4.70195">
        <ele>477</ele>
        <time>2022-05-14T13:47:46.000Z</time>
      </trkpt>
      <trkpt lat="46.31925" lon="4.70226">
        <ele>479</ele>
        <time>2022-05-14T13:47:52.000Z</time>
      </trkpt>
      <trkpt lat="46.31913" lon="4.7025">
        <ele>480.79998779297</ele>
        <time>2022-05-14T13:47:58.000Z</time>
      </trkpt>
      <trkpt lat="46.31907" lon="4.70253">
        <ele>481.60000610352</ele>
        <time>2022-05-14T13:48:00.000Z</time>
      </trkpt>
      <trkpt lat="46.31903" lon="4.70254">
        <ele>481.79998779297</ele>
        <time>2022-05-14T13:48:02.000Z</time>
      </trkpt>
      <trkpt lat="46.31896" lon="4.7022">
        <ele>484.20001220703</ele>
        <time>2022-05-14T13:48:11.000Z</time>
      </trkpt>
      <trkpt lat="46.31892" lon="4.70217">
        <ele>485</ele>
        <time>2022-05-14T13:48:12.000Z</time>
      </trkpt>
      <trkpt lat="46.31863" lon="4.70193">
        <ele>489.20001220703</ele>
        <time>2022-05-14T13:48:21.000Z</time>
      </trkpt>
      <trkpt lat="46.31836" lon="4.70178">
        <ele>491.39999389648</ele>
        <time>2022-05-14T13:48:29.000Z</time>
      </trkpt>
      <trkpt lat="46.31807" lon="4.70162">
        <ele>493.79998779297</ele>
        <time>2022-05-14T13:48:37.000Z</time>
      </trkpt>
      <trkpt lat="46.31779" lon="4.70148">
        <ele>498</ele>
        <time>2022-05-14T13:48:45.000Z</time>
      </trkpt>
      <trkpt lat="46.31749" lon="4.70123">
        <ele>504.60000610352</ele>
        <time>2022-05-14T13:48:54.000Z</time>
      </trkpt>
      <trkpt lat="46.31718" lon="4.7007">
        <ele>508.79998779297</ele>
        <time>2022-05-14T13:49:05.000Z</time>
      </trkpt>
      <trkpt lat="46.31707" lon="4.70013">
        <ele>508.60000610352</ele>
        <time>2022-05-14T13:49:16.000Z</time>
      </trkpt>
      <trkpt lat="46.31681" lon="4.69982">
        <ele>507.79998779297</ele>
        <time>2022-05-14T13:49:25.000Z</time>
      </trkpt>
      <trkpt lat="46.3166" lon="4.69928">
        <ele>505</ele>
        <time>2022-05-14T13:49:35.000Z</time>
      </trkpt>
      <trkpt lat="46.31648" lon="4.69905">
        <ele>503.60000610352</ele>
        <time>2022-05-14T13:49:40.000Z</time>
      </trkpt>
      <trkpt lat="46.31635" lon="4.69892">
        <ele>503.39999389648</ele>
        <time>2022-05-14T13:49:44.000Z</time>
      </trkpt>
      <trkpt lat="46.31581" lon="4.69886">
        <ele>507.20001220703</ele>
        <time>2022-05-14T13:49:58.000Z</time>
      </trkpt>
      <trkpt lat="46.31577" lon="4.69886">
        <ele>507.39999389648</ele>
        <time>2022-05-14T13:49:59.000Z</time>
      </trkpt>
      <trkpt lat="46.31513" lon="4.69903">
        <ele>506.79998779297</ele>
        <time>2022-05-14T13:50:14.000Z</time>
      </trkpt>
      <trkpt lat="46.31486" lon="4.69906">
        <ele>506.79998779297</ele>
        <time>2022-05-14T13:50:20.000Z</time>
      </trkpt>
      <trkpt lat="46.31455" lon="4.69903">
        <ele>508.20001220703</ele>
        <time>2022-05-14T13:50:27.000Z</time>
      </trkpt>
      <trkpt lat="46.31434" lon="4.699">
        <ele>510</ele>
        <time>2022-05-14T13:50:32.000Z</time>
      </trkpt>
      <trkpt lat="46.31387" lon="4.69879">
        <ele>511.20001220703</ele>
        <time>2022-05-14T13:50:44.000Z</time>
      </trkpt>
      <trkpt lat="46.31343" lon="4.69872">
        <ele>514.79998779297</ele>
        <time>2022-05-14T13:50:55.000Z</time>
      </trkpt>
      <trkpt lat="46.31308" lon="4.69864">
        <ele>518</ele>
        <time>2022-05-14T13:51:03.000Z</time>
      </trkpt>
      <trkpt lat="46.31296" lon="4.69862">
        <ele>519.20001220703</ele>
        <time>2022-05-14T13:51:06.000Z</time>
      </trkpt>
      <trkpt lat="46.3127" lon="4.69854">
        <ele>521.59997558594</ele>
        <time>2022-05-14T13:51:12.000Z</time>
      </trkpt>
      <trkpt lat="46.31227" lon="4.69848">
        <ele>527.20001220703</ele>
        <time>2022-05-14T13:51:23.000Z</time>
      </trkpt>
      <trkpt lat="46.31194" lon="4.6985">
        <ele>530.79998779297</ele>
        <time>2022-05-14T13:51:31.000Z</time>
      </trkpt>
      <trkpt lat="46.31187" lon="4.69848">
        <ele>531.20001220703</ele>
        <time>2022-05-14T13:51:33.000Z</time>
      </trkpt>
      <trkpt lat="46.31183" lon="4.69847">
        <ele>531.40002441406</ele>
        <time>2022-05-14T13:51:34.000Z</time>
      </trkpt>
      <trkpt lat="46.3115" lon="4.69842">
        <ele>534</ele>
        <time>2022-05-14T13:51:43.000Z</time>
      </trkpt>
      <trkpt lat="46.31134" lon="4.69845">
        <ele>535</ele>
        <time>2022-05-14T13:51:48.000Z</time>
      </trkpt>
      <trkpt lat="46.31087" lon="4.69847">
        <ele>538.79998779297</ele>
        <time>2022-05-14T13:51:59.000Z</time>
      </trkpt>
      <trkpt lat="46.31053" lon="4.69836">
        <ele>540</ele>
        <time>2022-05-14T13:52:08.000Z</time>
      </trkpt>
      <trkpt lat="46.31023" lon="4.69827">
        <ele>541.40002441406</ele>
        <time>2022-05-14T13:52:16.000Z</time>
      </trkpt>
      <trkpt lat="46.30989" lon="4.69812">
        <ele>545</ele>
        <time>2022-05-14T13:52:25.000Z</time>
      </trkpt>
      <trkpt lat="46.30963" lon="4.69791">
        <ele>547.20001220703</ele>
        <time>2022-05-14T13:52:31.000Z</time>
      </trkpt>
      <trkpt lat="46.30935" lon="4.69764">
        <ele>549.59997558594</ele>
        <time>2022-05-14T13:52:38.000Z</time>
      </trkpt>
      <trkpt lat="46.30911" lon="4.69725">
        <ele>552</ele>
        <time>2022-05-14T13:52:45.000Z</time>
      </trkpt>
      <trkpt lat="46.30888" lon="4.69708">
        <ele>551.40002441406</ele>
        <time>2022-05-14T13:52:51.000Z</time>
      </trkpt>
      <trkpt lat="46.30861" lon="4.69702">
        <ele>551</ele>
        <time>2022-05-14T13:52:57.000Z</time>
      </trkpt>
      <trkpt lat="46.30833" lon="4.69695">
        <ele>552.20001220703</ele>
        <time>2022-05-14T13:53:03.000Z</time>
      </trkpt>
      <trkpt lat="46.30814" lon="4.69684">
        <ele>551.40002441406</ele>
        <time>2022-05-14T13:53:07.000Z</time>
      </trkpt>
      <trkpt lat="46.30788" lon="4.69667">
        <ele>550</ele>
        <time>2022-05-14T13:53:12.000Z</time>
      </trkpt>
      <trkpt lat="46.3077" lon="4.69657">
        <ele>549.40002441406</ele>
        <time>2022-05-14T13:53:15.000Z</time>
      </trkpt>
      <trkpt lat="46.30699" lon="4.69599">
        <ele>545</ele>
        <time>2022-05-14T13:53:29.000Z</time>
      </trkpt>
      <trkpt lat="46.30647" lon="4.69575">
        <ele>551.59997558594</ele>
        <time>2022-05-14T13:53:42.000Z</time>
      </trkpt>
      <trkpt lat="46.30622" lon="4.69566">
        <ele>552.79998779297</ele>
        <time>2022-05-14T13:53:53.000Z</time>
      </trkpt>
      <trkpt lat="46.3062" lon="4.69565">
        <ele>552.79998779297</ele>
        <time>2022-05-14T13:53:59.000Z</time>
      </trkpt>
      <trkpt lat="46.30595" lon="4.69595">
        <ele>554</ele>
        <time>2022-05-14T13:59:54.000Z</time>
      </trkpt>
      <trkpt lat="46.30579" lon="4.69619">
        <ele>553</ele>
        <time>2022-05-14T14:00:13.000Z</time>
      </trkpt>
      <trkpt lat="46.30574" lon="4.69632">
        <ele>551.79998779297</ele>
        <time>2022-05-14T14:00:29.000Z</time>
      </trkpt>
      <trkpt lat="46.30564" lon="4.69644">
        <ele>550</ele>
        <time>2022-05-14T14:35:46.000Z</time>
      </trkpt>
      <trkpt lat="46.30543" lon="4.69676">
        <ele>545.20001220703</ele>
        <time>2022-05-14T14:35:58.000Z</time>
      </trkpt>
      <trkpt lat="46.30534" lon="4.69684">
        <ele>544.20001220703</ele>
        <time>2022-05-14T14:36:02.000Z</time>
      </trkpt>
      <trkpt lat="46.30511" lon="4.69667">
        <ele>545.40002441406</ele>
        <time>2022-05-14T14:36:10.000Z</time>
      </trkpt>
      <trkpt lat="46.30499" lon="4.69659">
        <ele>546</ele>
        <time>2022-05-14T14:36:13.000Z</time>
      </trkpt>
      <trkpt lat="46.30447" lon="4.69633">
        <ele>545</ele>
        <time>2022-05-14T14:36:25.000Z</time>
      </trkpt>
      <trkpt lat="46.30419" lon="4.69617">
        <ele>542.20001220703</ele>
        <time>2022-05-14T14:36:32.000Z</time>
      </trkpt>
      <trkpt lat="46.30394" lon="4.69602">
        <ele>542.40002441406</ele>
        <time>2022-05-14T14:36:38.000Z</time>
      </trkpt>
      <trkpt lat="46.30373" lon="4.6959">
        <ele>543</ele>
        <time>2022-05-14T14:36:43.000Z</time>
      </trkpt>
      <trkpt lat="46.30352" lon="4.69579">
        <ele>543.79998779297</ele>
        <time>2022-05-14T14:36:48.000Z</time>
      </trkpt>
      <trkpt lat="46.30344" lon="4.69574">
        <ele>544.20001220703</ele>
        <time>2022-05-14T14:36:50.000Z</time>
      </trkpt>
      <trkpt lat="46.30312" lon="4.6956">
        <ele>546.59997558594</ele>
        <time>2022-05-14T14:36:57.000Z</time>
      </trkpt>
      <trkpt lat="46.30259" lon="4.69555">
        <ele>548.40002441406</ele>
        <time>2022-05-14T14:37:11.000Z</time>
      </trkpt>
      <trkpt lat="46.30211" lon="4.69563">
        <ele>551</ele>
        <time>2022-05-14T14:37:23.000Z</time>
      </trkpt>
      <trkpt lat="46.30152" lon="4.69583">
        <ele>546.79998779297</ele>
        <time>2022-05-14T14:37:35.000Z</time>
      </trkpt>
      <trkpt lat="46.30127" lon="4.69591">
        <ele>542.79998779297</ele>
        <time>2022-05-14T14:37:41.000Z</time>
      </trkpt>
      <trkpt lat="46.30116" lon="4.69594">
        <ele>541.59997558594</ele>
        <time>2022-05-14T14:37:44.000Z</time>
      </trkpt>
      <trkpt lat="46.30107" lon="4.69594">
        <ele>540.79998779297</ele>
        <time>2022-05-14T14:37:46.000Z</time>
      </trkpt>
      <trkpt lat="46.30095" lon="4.69588">
        <ele>541</ele>
        <time>2022-05-14T14:37:49.000Z</time>
      </trkpt>
      <trkpt lat="46.30082" lon="4.69582">
        <ele>541.20001220703</ele>
        <time>2022-05-14T14:37:52.000Z</time>
      </trkpt>
      <trkpt lat="46.3003" lon="4.69549">
        <ele>541.40002441406</ele>
        <time>2022-05-14T14:38:07.000Z</time>
      </trkpt>
      <trkpt lat="46.30014" lon="4.69546">
        <ele>540</ele>
        <time>2022-05-14T14:38:12.000Z</time>
      </trkpt>
      <trkpt lat="46.29998" lon="4.69545">
        <ele>538.59997558594</ele>
        <time>2022-05-14T14:38:15.000Z</time>
      </trkpt>
      <trkpt lat="46.29988" lon="4.69545">
        <ele>537</ele>
        <time>2022-05-14T14:38:17.000Z</time>
      </trkpt>
      <trkpt lat="46.29972" lon="4.69545">
        <ele>533.20001220703</ele>
        <time>2022-05-14T14:38:20.000Z</time>
      </trkpt>
      <trkpt lat="46.29931" lon="4.69539">
        <ele>527</ele>
        <time>2022-05-14T14:38:29.000Z</time>
      </trkpt>
      <trkpt lat="46.29901" lon="4.69559">
        <ele>523.59997558594</ele>
        <time>2022-05-14T14:38:40.000Z</time>
      </trkpt>
      <trkpt lat="46.29886" lon="4.69595">
        <ele>518.20001220703</ele>
        <time>2022-05-14T14:38:48.000Z</time>
      </trkpt>
      <trkpt lat="46.29876" lon="4.6961">
        <ele>514.40002441406</ele>
        <time>2022-05-14T14:38:52.000Z</time>
      </trkpt>
      <trkpt lat="46.29866" lon="4.69623">
        <ele>509.39999389648</ele>
        <time>2022-05-14T14:38:56.000Z</time>
      </trkpt>
      <trkpt lat="46.29857" lon="4.69646">
        <ele>503</ele>
        <time>2022-05-14T14:39:00.000Z</time>
      </trkpt>
      <trkpt lat="46.29859" lon="4.69658">
        <ele>501.39999389648</ele>
        <time>2022-05-14T14:39:03.000Z</time>
      </trkpt>
      <trkpt lat="46.29852" lon="4.69672">
        <ele>499</ele>
        <time>2022-05-14T14:39:08.000Z</time>
      </trkpt>
      <trkpt lat="46.29833" lon="4.69683">
        <ele>497.39999389648</ele>
        <time>2022-05-14T14:39:14.000Z</time>
      </trkpt>
      <trkpt lat="46.29816" lon="4.697">
        <ele>495.60000610352</ele>
        <time>2022-05-14T14:39:20.000Z</time>
      </trkpt>
      <trkpt lat="46.2979" lon="4.69718">
        <ele>491.79998779297</ele>
        <time>2022-05-14T14:39:26.000Z</time>
      </trkpt>
      <trkpt lat="46.29766" lon="4.69721">
        <ele>491</ele>
        <time>2022-05-14T14:39:31.000Z</time>
      </trkpt>
      <trkpt lat="46.29753" lon="4.69723">
        <ele>491.20001220703</ele>
        <time>2022-05-14T14:39:36.000Z</time>
      </trkpt>
      <trkpt lat="46.29744" lon="4.69739">
        <ele>488.60000610352</ele>
        <time>2022-05-14T14:39:40.000Z</time>
      </trkpt>
      <trkpt lat="46.29713" lon="4.69785">
        <ele>478.79998779297</ele>
        <time>2022-05-14T14:39:51.000Z</time>
      </trkpt>
      <trkpt lat="46.29696" lon="4.69798">
        <ele>476.20001220703</ele>
        <time>2022-05-14T14:39:56.000Z</time>
      </trkpt>
      <trkpt lat="46.29692" lon="4.69801">
        <ele>475.79998779297</ele>
        <time>2022-05-14T14:39:57.000Z</time>
      </trkpt>
      <trkpt lat="46.29668" lon="4.69807">
        <ele>474</ele>
        <time>2022-05-14T14:40:03.000Z</time>
      </trkpt>
      <trkpt lat="46.29661" lon="4.69808">
        <ele>473.60000610352</ele>
        <time>2022-05-14T14:40:08.000Z</time>
      </trkpt>
      <trkpt lat="46.29656" lon="4.69811">
        <ele>473</ele>
        <time>2022-05-14T14:40:13.000Z</time>
      </trkpt>
      <trkpt lat="46.29637" lon="4.6984">
        <ele>468</ele>
        <time>2022-05-14T14:40:36.000Z</time>
      </trkpt>
      <trkpt lat="46.29637" lon="4.69847">
        <ele>467</ele>
        <time>2022-05-14T14:40:38.000Z</time>
      </trkpt>
      <trkpt lat="46.2964" lon="4.69876">
        <ele>464</ele>
        <time>2022-05-14T14:40:46.000Z</time>
      </trkpt>
      <trkpt lat="46.29649" lon="4.69897">
        <ele>462.20001220703</ele>
        <time>2022-05-14T14:40:51.000Z</time>
      </trkpt>
      <trkpt lat="46.2965" lon="4.69915">
        <ele>461</ele>
        <time>2022-05-14T14:40:55.000Z</time>
      </trkpt>
      <trkpt lat="46.29655" lon="4.69928">
        <ele>460</ele>
        <time>2022-05-14T14:41:03.000Z</time>
      </trkpt>
      <trkpt lat="46.29658" lon="4.69935">
        <ele>459.20001220703</ele>
        <time>2022-05-14T14:41:10.000Z</time>
      </trkpt>
      <trkpt lat="46.29659" lon="4.69946">
        <ele>458.39999389648</ele>
        <time>2022-05-14T14:41:14.000Z</time>
      </trkpt>
      <trkpt lat="46.29666" lon="4.69991">
        <ele>455.79998779297</ele>
        <time>2022-05-14T14:41:30.000Z</time>
      </trkpt>
      <trkpt lat="46.29667" lon="4.70003">
        <ele>455.39999389648</ele>
        <time>2022-05-14T14:41:33.000Z</time>
      </trkpt>
      <trkpt lat="46.29673" lon="4.70039">
        <ele>454.39999389648</ele>
        <time>2022-05-14T14:41:41.000Z</time>
      </trkpt>
      <trkpt lat="46.29676" lon="4.70081">
        <ele>454.39999389648</ele>
        <time>2022-05-14T14:41:50.000Z</time>
      </trkpt>
      <trkpt lat="46.29677" lon="4.7013">
        <ele>451.79998779297</ele>
        <time>2022-05-14T14:42:01.000Z</time>
      </trkpt>
      <trkpt lat="46.29672" lon="4.70157">
        <ele>450</ele>
        <time>2022-05-14T14:42:07.000Z</time>
      </trkpt>
      <trkpt lat="46.29653" lon="4.70156">
        <ele>451.79998779297</ele>
        <time>2022-05-14T14:42:13.000Z</time>
      </trkpt>
      <trkpt lat="46.29613" lon="4.70122">
        <ele>456.20001220703</ele>
        <time>2022-05-14T14:42:26.000Z</time>
      </trkpt>
      <trkpt lat="46.29593" lon="4.70114">
        <ele>458.20001220703</ele>
        <time>2022-05-14T14:42:32.000Z</time>
      </trkpt>
      <trkpt lat="46.29573" lon="4.70095">
        <ele>461.60000610352</ele>
        <time>2022-05-14T14:42:38.000Z</time>
      </trkpt>
      <trkpt lat="46.2956" lon="4.7008">
        <ele>463.79998779297</ele>
        <time>2022-05-14T14:42:42.000Z</time>
      </trkpt>
      <trkpt lat="46.29531" lon="4.70062">
        <ele>468</ele>
        <time>2022-05-14T14:42:50.000Z</time>
      </trkpt>
      <trkpt lat="46.29508" lon="4.70051">
        <ele>471.20001220703</ele>
        <time>2022-05-14T14:42:56.000Z</time>
      </trkpt>
      <trkpt lat="46.29482" lon="4.70036">
        <ele>475.20001220703</ele>
        <time>2022-05-14T14:43:03.000Z</time>
      </trkpt>
      <trkpt lat="46.29456" lon="4.70022">
        <ele>478.60000610352</ele>
        <time>2022-05-14T14:43:10.000Z</time>
      </trkpt>
      <trkpt lat="46.29427" lon="4.7">
        <ele>482.20001220703</ele>
        <time>2022-05-14T14:43:18.000Z</time>
      </trkpt>
      <trkpt lat="46.29405" lon="4.69972">
        <ele>485.39999389648</ele>
        <time>2022-05-14T14:43:26.000Z</time>
      </trkpt>
      <trkpt lat="46.29376" lon="4.69937">
        <ele>488</ele>
        <time>2022-05-14T14:43:36.000Z</time>
      </trkpt>
      <trkpt lat="46.29351" lon="4.69905">
        <ele>490.39999389648</ele>
        <time>2022-05-14T14:43:44.000Z</time>
      </trkpt>
      <trkpt lat="46.29331" lon="4.69881">
        <ele>492.20001220703</ele>
        <time>2022-05-14T14:43:51.000Z</time>
      </trkpt>
      <trkpt lat="46.29326" lon="4.69874">
        <ele>492.79998779297</ele>
        <time>2022-05-14T14:43:53.000Z</time>
      </trkpt>
      <trkpt lat="46.29299" lon="4.69846">
        <ele>496.39999389648</ele>
        <time>2022-05-14T14:44:02.000Z</time>
      </trkpt>
      <trkpt lat="46.29276" lon="4.69837">
        <ele>498.79998779297</ele>
        <time>2022-05-14T14:44:11.000Z</time>
      </trkpt>
      <trkpt lat="46.29255" lon="4.69842">
        <ele>500.60000610352</ele>
        <time>2022-05-14T14:44:17.000Z</time>
      </trkpt>
      <trkpt lat="46.2918" lon="4.69838">
        <ele>506.39999389648</ele>
        <time>2022-05-14T14:44:35.000Z</time>
      </trkpt>
      <trkpt lat="46.29179" lon="4.69827">
        <ele>508</ele>
        <time>2022-05-14T14:44:39.000Z</time>
      </trkpt>
      <trkpt lat="46.29186" lon="4.69822">
        <ele>507.39999389648</ele>
        <time>2022-05-14T14:44:41.000Z</time>
      </trkpt>
      <trkpt lat="46.29204" lon="4.69802">
        <ele>508</ele>
        <time>2022-05-14T14:44:46.000Z</time>
      </trkpt>
      <trkpt lat="46.29213" lon="4.69773">
        <ele>509.1</ele>
        <time>2022-05-14T14:44:53.000Z</time>
      </trkpt>
      <trkpt lat="46.29213" lon="4.69761">
        <ele>510.2</ele>
      </trkpt>
      <trkpt lat="46.29217" lon="4.69745">
        <ele>511.20001220703</ele>
        <time>2022-05-14T14:44:58.000Z</time>
      </trkpt>
      <trkpt lat="46.29217" lon="4.69719">
        <ele>511.60000610352</ele>
        <time>2022-05-14T14:45:02.000Z</time>
      </trkpt>
      <trkpt lat="46.29205" lon="4.69614">
        <ele>517.79998779297</ele>
        <time>2022-05-14T14:45:18.000Z</time>
      </trkpt>
      <trkpt lat="46.29203" lon="4.69579">
        <ele>519.20001220703</ele>
        <time>2022-05-14T14:45:23.000Z</time>
      </trkpt>
      <trkpt lat="46.29204" lon="4.69538">
        <ele>521</ele>
        <time>2022-05-14T14:45:29.000Z</time>
      </trkpt>
      <trkpt lat="46.29207" lon="4.69488">
        <ele>523.59997558594</ele>
        <time>2022-05-14T14:45:37.000Z</time>
      </trkpt>
      <trkpt lat="46.29185" lon="4.69482">
        <ele>525.40002441406</ele>
        <time>2022-05-14T14:45:44.000Z</time>
      </trkpt>
      <trkpt lat="46.29148" lon="4.69556">
        <ele>529</ele>
        <time>2022-05-14T14:45:57.000Z</time>
      </trkpt>
      <trkpt lat="46.29135" lon="4.69575">
        <ele>530.79998779297</ele>
        <time>2022-05-14T14:46:01.000Z</time>
      </trkpt>
      <trkpt lat="46.29119" lon="4.69591">
        <ele>531.79998779297</ele>
        <time>2022-05-14T14:46:05.000Z</time>
      </trkpt>
      <trkpt lat="46.29087" lon="4.69598">
        <ele>535.40002441406</ele>
        <time>2022-05-14T14:46:12.000Z</time>
      </trkpt>
      <trkpt lat="46.29083" lon="4.69597">
        <ele>535.79998779297</ele>
        <time>2022-05-14T14:46:13.000Z</time>
      </trkpt>
      <trkpt lat="46.29071" lon="4.69595">
        <ele>536.79998779297</ele>
        <time>2022-05-14T14:46:16.000Z</time>
      </trkpt>
      <trkpt lat="46.29018" lon="4.69581">
        <ele>540.8</ele>
        <time>2022-05-14T14:46:23.000Z</time>
      </trkpt>
      <trkpt lat="46.28986" lon="4.69574">
        <ele>543.1</ele>
        <time>2022-05-14T14:46:31.000Z</time>
      </trkpt>
      <trkpt lat="46.2895" lon="4.69582">
        <ele>544.6</ele>
        <time>2022-05-14T14:46:38.000Z</time>
      </trkpt>
      <trkpt lat="46.28897" lon="4.69588">
        <ele>547.8</ele>
      </trkpt>
      <trkpt lat="46.28868" lon="4.69589">
        <ele>548.1</ele>
        <time>2022-05-14T14:49:08.000Z</time>
      </trkpt>
      <trkpt lat="46.28826" lon="4.69615">
        <ele>546.7</ele>
        <time>2022-05-14T14:49:17.000Z</time>
      </trkpt>
      <trkpt lat="46.28766" lon="4.69638">
        <ele>546.5</ele>
        <time>2022-05-14T14:49:26.000Z</time>
      </trkpt>
      <trkpt lat="46.28728" lon="4.69667">
        <ele>545.6</ele>
        <time>2022-05-14T14:49:27.000Z</time>
      </trkpt>
      <trkpt lat="46.28627" lon="4.69779">
        <ele>541.3</ele>
        <time>2022-05-14T14:49:36.000Z</time>
      </trkpt>
      <trkpt lat="46.2859" lon="4.69809">
        <ele>539.7</ele>
        <time>2022-05-14T14:50:51.000Z</time>
      </trkpt>
      <trkpt lat="46.28508" lon="4.69794">
        <ele>539.2</ele>
        <time>2022-05-14T14:50:58.000Z</time>
      </trkpt>
      <trkpt lat="46.28485" lon="4.69921">
        <ele>534.4</ele>
      </trkpt>
      <trkpt lat="46.2845" lon="4.69979">
        <ele>532.3</ele>
      </trkpt>
      <trkpt lat="46.28356" lon="4.69998">
        <ele>525.2</ele>
      </trkpt>
      <trkpt lat="46.28265" lon="4.69983">
        <ele>511.9</ele>
      </trkpt>
      <trkpt lat="46.28264" lon="4.70043">
        <ele>510.7</ele>
      </trkpt>
      <trkpt lat="46.28222" lon="4.70159">
        <ele>502.7</ele>
      </trkpt>
      <trkpt lat="46.28179" lon="4.70215">
        <ele>496.7</ele>
      </trkpt>
      <trkpt lat="46.28172" lon="4.70273">
        <ele>491.5</ele>
      </trkpt>
      <trkpt lat="46.28198" lon="4.70333">
        <ele>486.2</ele>
      </trkpt>
      <trkpt lat="46.28247" lon="4.70369">
        <ele>479.6</ele>
      </trkpt>
      <trkpt lat="46.28289" lon="4.70453">
        <ele>467.6</ele>
      </trkpt>
      <trkpt lat="46.28295" lon="4.70537">
        <ele>462</ele>
      </trkpt>
      <trkpt lat="46.28305" lon="4.70614">
        <ele>455.7</ele>
      </trkpt>
      <trkpt lat="46.28366" lon="4.70666">
        <ele>449.1</ele>
      </trkpt>
      <trkpt lat="46.28467" lon="4.70732">
        <ele>437</ele>
      </trkpt>
      <trkpt lat="46.28498" lon="4.70799">
        <ele>441.2</ele>
      </trkpt>
      <trkpt lat="46.28498" lon="4.70867">
        <ele>440.1</ele>
      </trkpt>
      <trkpt lat="46.28522" lon="4.70908">
        <ele>438.4</ele>
      </trkpt>
      <trkpt lat="46.28453" lon="4.70949">
        <ele>440</ele>
      </trkpt>
      <trkpt lat="46.28422" lon="4.70962">
        <ele>438.2</ele>
      </trkpt>
      <trkpt lat="46.28388" lon="4.70953">
        <ele>437</ele>
      </trkpt>
      <trkpt lat="46.28366" lon="4.70966">
        <ele>434.9</ele>
      </trkpt>
      <trkpt lat="46.28379" lon="4.71041">
        <ele>429.9</ele>
      </trkpt>
      <trkpt lat="46.28416" lon="4.71108">
        <ele>422.3</ele>
      </trkpt>
      <trkpt lat="46.28403" lon="4.71161">
        <ele>415</ele>
      </trkpt>
      <trkpt lat="46.28348" lon="4.71221">
        <ele>406.2</ele>
      </trkpt>
      <trkpt lat="46.28315" lon="4.71245">
        <ele>402.5</ele>
      </trkpt>
      <trkpt lat="46.28272" lon="4.71232">
        <ele>405.4</ele>
      </trkpt>
      <trkpt lat="46.28234" lon="4.71251">
        <ele>398.3</ele>
      </trkpt>
      <trkpt lat="46.28229" lon="4.71301">
        <ele>392.7</ele>
      </trkpt>
      <trkpt lat="46.28173" lon="4.71346">
        <ele>382.9</ele>
      </trkpt>
      <trkpt lat="46.28158" lon="4.7132">
        <ele>383.2</ele>
      </trkpt>
      <trkpt lat="46.28105" lon="4.71333">
        <ele>374.4</ele>
      </trkpt>
      <trkpt lat="46.28071" lon="4.71316">
        <ele>371.6</ele>
      </trkpt>
      <trkpt lat="46.28052" lon="4.71301">
        <ele>369.5</ele>
      </trkpt>
      <trkpt lat="46.2804" lon="4.71236">
        <ele>372</ele>
      </trkpt>
      <trkpt lat="46.28013" lon="4.71245">
        <ele>370.2</ele>
      </trkpt>
      <trkpt lat="46.27961" lon="4.71292">
        <ele>377.2</ele>
      </trkpt>
      <trkpt lat="46.27931" lon="4.71337">
        <ele>378.6</ele>
      </trkpt>
      <trkpt lat="46.27891" lon="4.71402">
        <ele>379.3</ele>
      </trkpt>
      <trkpt lat="46.27845" lon="4.7135">
        <ele>388.3</ele>
      </trkpt>
      <trkpt lat="46.27825" lon="4.71314">
        <ele>393.7</ele>
      </trkpt>
      <trkpt lat="46.27767" lon="4.7138">
        <ele>390</ele>
      </trkpt>
      <trkpt lat="46.27633" lon="4.71507">
        <ele>387.1</ele>
      </trkpt>
      <trkpt lat="46.27546" lon="4.71515">
        <ele>381.2</ele>
      </trkpt>
      <trkpt lat="46.27525" lon="4.71526">
        <ele>380.1</ele>
      </trkpt>
      <trkpt lat="46.27478" lon="4.71489">
        <ele>381.8</ele>
      </trkpt>
      <trkpt lat="46.27449" lon="4.71477">
        <ele>382.7</ele>
      </trkpt>
      <trkpt lat="46.27415" lon="4.71457">
        <ele>382.9</ele>
      </trkpt>
      <trkpt lat="46.27346" lon="4.71477">
        <ele>372.9</ele>
      </trkpt>
      <trkpt lat="46.27316" lon="4.71466">
        <ele>370.1</ele>
      </trkpt>
      <trkpt lat="46.27274" lon="4.71479">
        <ele>365.5</ele>
      </trkpt>
      <trkpt lat="46.27258" lon="4.71517">
        <ele>362.1</ele>
      </trkpt>
      <trkpt lat="46.27224" lon="4.71509">
        <ele>359.6</ele>
      </trkpt>
      <trkpt lat="46.27181" lon="4.71539">
        <ele>352.1</ele>
      </trkpt>
      <trkpt lat="46.27169" lon="4.71447">
        <ele>358.2</ele>
      </trkpt>
      <trkpt lat="46.27142" lon="4.71419">
        <ele>362.5</ele>
      </trkpt>
      <trkpt lat="46.27037" lon="4.71408">
        <ele>366.5</ele>
      </trkpt>
      <trkpt lat="46.26923" lon="4.71399">
        <ele>373</ele>
      </trkpt>
      <trkpt lat="46.26816" lon="4.71363">
        <ele>388.1</ele>
      </trkpt>
      <trkpt lat="46.26736" lon="4.71335">
        <ele>395.1</ele>
      </trkpt>
      <trkpt lat="46.26657" lon="4.71326">
        <ele>396.9</ele>
      </trkpt>
      <trkpt lat="46.26629" lon="4.71309">
        <ele>399.7</ele>
      </trkpt>
      <trkpt lat="46.2661" lon="4.71271">
        <ele>404.8</ele>
      </trkpt>
      <trkpt lat="46.26549" lon="4.71273">
        <ele>396.6</ele>
      </trkpt>
      <trkpt lat="46.2651" lon="4.71273">
        <ele>392.4</ele>
      </trkpt>
      <trkpt lat="46.2647" lon="4.71346">
        <ele>382.4</ele>
      </trkpt>
      <trkpt lat="46.26401" lon="4.71395">
        <ele>373.8</ele>
      </trkpt>
      <trkpt lat="46.2634" lon="4.71395">
        <ele>369.6</ele>
      </trkpt>
      <trkpt lat="46.26297" lon="4.71447">
        <ele>367.3</ele>
      </trkpt>
      <trkpt lat="46.26266" lon="4.71466">
        <ele>365.1</ele>
      </trkpt>
      <trkpt lat="46.26275" lon="4.71492">
        <ele>363.8</ele>
      </trkpt>
      <trkpt lat="46.26337" lon="4.71517">
        <ele>359</ele>
      </trkpt>
      <trkpt lat="46.26405" lon="4.71571">
        <ele>351.7</ele>
      </trkpt>
      <trkpt lat="46.26359" lon="4.71592">
        <ele>346.6</ele>
      </trkpt>
      <trkpt lat="46.26322" lon="4.71614">
        <ele>341.2</ele>
      </trkpt>
      <trkpt lat="46.26238" lon="4.7162">
        <ele>340.8</ele>
      </trkpt>
      <trkpt lat="46.26166" lon="4.71635">
        <ele>340.5</ele>
      </trkpt>
      <trkpt lat="46.26126" lon="4.71702">
        <ele>333.9</ele>
      </trkpt>
      <trkpt lat="46.26098" lon="4.71706">
        <ele>332.2</ele>
      </trkpt>
      <trkpt lat="46.26039" lon="4.71708">
        <ele>329.1</ele>
      </trkpt>
      <trkpt lat="46.26019" lon="4.71749">
        <ele>323.8</ele>
      </trkpt>
      <trkpt lat="46.26055" lon="4.71811">
        <ele>320.8</ele>
      </trkpt>
      <trkpt lat="46.26073" lon="4.71844">
        <ele>319.9</ele>
      </trkpt>
      <trkpt lat="46.26059" lon="4.71871">
        <ele>318.8</ele>
      </trkpt>
      <trkpt lat="46.26043" lon="4.71908">
        <ele>317.9</ele>
      </trkpt>
      <trkpt lat="46.26005" lon="4.71927">
        <ele>315.7</ele>
      </trkpt>
      <trkpt lat="46.25835" lon="4.71974">
        <ele>305.3</ele>
      </trkpt>
      <trkpt lat="46.25784" lon="4.71983">
        <ele>302.5</ele>
      </trkpt>
      <trkpt lat="46.25708" lon="4.71989">
        <ele>294.7</ele>
      </trkpt>
      <trkpt lat="46.25659" lon="4.7194">
        <ele>291.2</ele>
      </trkpt>
      <trkpt lat="46.25632" lon="4.71876">
        <ele>292.8</ele>
      </trkpt>
      <trkpt lat="46.25558" lon="4.71944">
        <ele>291.8</ele>
      </trkpt>
      <trkpt lat="46.25516" lon="4.71987">
        <ele>291.4</ele>
      </trkpt>
      <trkpt lat="46.25494" lon="4.72028">
        <ele>291.2</ele>
      </trkpt>
      <trkpt lat="46.25479" lon="4.72062">
        <ele>290.2</ele>
      </trkpt>
      <trkpt lat="46.25389" lon="4.72114">
        <ele>300.8</ele>
      </trkpt>
      <trkpt lat="46.2534" lon="4.72112">
        <ele>305.5</ele>
      </trkpt>
      <trkpt lat="46.25288" lon="4.72095">
        <ele>308.3</ele>
      </trkpt>
      <trkpt lat="46.25243" lon="4.7208">
        <ele>309.5</ele>
      </trkpt>
      <trkpt lat="46.25168" lon="4.72043">
        <ele>313.4</ele>
      </trkpt>
      <trkpt lat="46.25083" lon="4.7214">
        <ele>310</ele>
      </trkpt>
      <trkpt lat="46.25045" lon="4.72043">
        <ele>317.5</ele>
      </trkpt>
      <trkpt lat="46.24962" lon="4.72118">
        <ele>316.6</ele>
      </trkpt>
      <trkpt lat="46.24907" lon="4.72161">
        <ele>315.6</ele>
      </trkpt>
      <trkpt lat="46.24807" lon="4.72185">
        <ele>319.6</ele>
      </trkpt>
      <trkpt lat="46.2476" lon="4.72206">
        <ele>320.6</ele>
      </trkpt>
      <trkpt lat="46.24737" lon="4.72228">
        <ele>321.2</ele>
      </trkpt>
      <trkpt lat="46.24712" lon="4.7229">
        <ele>320.8</ele>
      </trkpt>
      <trkpt lat="46.24714" lon="4.72371">
        <ele>319.8</ele>
      </trkpt>
      <trkpt lat="46.24626" lon="4.72363">
        <ele>324.9</ele>
      </trkpt>
      <trkpt lat="46.24543" lon="4.7232">
        <ele>323.8</ele>
      </trkpt>
      <trkpt lat="46.24512" lon="4.72316">
        <ele>322.7</ele>
      </trkpt>
      <trkpt lat="46.24447" lon="4.72324">
        <ele>322.7</ele>
      </trkpt>
      <trkpt lat="46.2439" lon="4.72303">
        <ele>321.6</ele>
      </trkpt>
      <trkpt lat="46.24356" lon="4.72266">
        <ele>321.1</ele>
      </trkpt>
      <trkpt lat="46.24295" lon="4.72245">
        <ele>317.5</ele>
      </trkpt>
      <trkpt lat="46.24239" lon="4.72191">
        <ele>314.5</ele>
      </trkpt>
      <trkpt lat="46.24215" lon="4.72153">
        <ele>314.8</ele>
      </trkpt>
      <trkpt lat="46.24153" lon="4.72131">
        <ele>309</ele>
      </trkpt>
      <trkpt lat="46.24098" lon="4.7212">
        <ele>304.9</ele>
      </trkpt>
      <trkpt lat="46.24064" lon="4.72097">
        <ele>302.4</ele>
      </trkpt>
      <trkpt lat="46.24024" lon="4.72071">
        <ele>300.1</ele>
      </trkpt>
      <trkpt lat="46.24046" lon="4.72146">
        <ele>297.7</ele>
      </trkpt>
      <trkpt lat="46.24072" lon="4.72212">
        <ele>296.1</ele>
      </trkpt>
      <trkpt lat="46.24012" lon="4.72258">
        <ele>288</ele>
      </trkpt>
      <trkpt lat="46.23915" lon="4.72329">
        <ele>278.79998779297</ele>
        <time>2022-05-14T15:26:18.000Z</time>
      </trkpt>
      <trkpt lat="46.23893" lon="4.72344">
        <ele>277</ele>
        <time>2022-05-14T15:26:20.000Z</time>
      </trkpt>
      <trkpt lat="46.23864" lon="4.72363">
        <ele>274.60000610352</ele>
        <time>2022-05-14T15:26:23.000Z</time>
      </trkpt>
      <trkpt lat="46.23842" lon="4.72386">
        <ele>273.20001220703</ele>
        <time>2022-05-14T15:26:26.000Z</time>
      </trkpt>
      <trkpt lat="46.23825" lon="4.72415">
        <ele>271.20001220703</ele>
        <time>2022-05-14T15:26:29.000Z</time>
      </trkpt>
      <trkpt lat="46.23806" lon="4.7246">
        <ele>269.39999389648</ele>
        <time>2022-05-14T15:26:33.000Z</time>
      </trkpt>
      <trkpt lat="46.23801" lon="4.7248">
        <ele>268.79998779297</ele>
        <time>2022-05-14T15:26:35.000Z</time>
      </trkpt>
      <trkpt lat="46.23799" lon="4.72506">
        <ele>268</ele>
        <time>2022-05-14T15:26:38.000Z</time>
      </trkpt>
      <trkpt lat="46.23793" lon="4.72521">
        <ele>267</ele>
        <time>2022-05-14T15:26:41.000Z</time>
      </trkpt>
      <trkpt lat="46.23784" lon="4.72526">
        <ele>266.79998779297</ele>
        <time>2022-05-14T15:26:43.000Z</time>
      </trkpt>
      <trkpt lat="46.23688" lon="4.7257">
        <ele>265.39999389648</ele>
        <time>2022-05-14T15:26:59.000Z</time>
      </trkpt>
      <trkpt lat="46.23664" lon="4.72578">
        <ele>265.20001220703</ele>
        <time>2022-05-14T15:27:03.000Z</time>
      </trkpt>
      <trkpt lat="46.23614" lon="4.72597">
        <ele>265</ele>
        <time>2022-05-14T15:27:12.000Z</time>
      </trkpt>
      <trkpt lat="46.23587" lon="4.72607">
        <ele>264.39999389648</ele>
        <time>2022-05-14T15:27:17.000Z</time>
      </trkpt>
      <trkpt lat="46.23562" lon="4.72616">
        <ele>263</ele>
        <time>2022-05-14T15:27:43.000Z</time>
      </trkpt>
      <trkpt lat="46.2357" lon="4.72638">
        <ele>263.60000610352</ele>
        <time>2022-05-14T15:27:51.000Z</time>
      </trkpt>
      <trkpt lat="46.23557" lon="4.72732">
        <ele>259.60000610352</ele>
        <time>2022-05-14T15:28:03.000Z</time>
      </trkpt>
      <trkpt lat="46.23542" lon="4.72849">
        <ele>257.39999389648</ele>
        <time>2022-05-14T15:28:16.000Z</time>
      </trkpt>
      <trkpt lat="46.23533" lon="4.72974">
        <ele>253.39999389648</ele>
        <time>2022-05-14T15:28:30.000Z</time>
      </trkpt>
      <trkpt lat="46.23533" lon="4.73064">
        <ele>249.39999389648</ele>
        <time>2022-05-14T15:28:40.000Z</time>
      </trkpt>
      <trkpt lat="46.23506" lon="4.73085">
        <ele>249.19999694824</ele>
        <time>2022-05-14T15:28:48.000Z</time>
      </trkpt>
      <trkpt lat="46.23491" lon="4.73075">
        <ele>250.60000610352</ele>
        <time>2022-05-14T15:28:51.000Z</time>
      </trkpt>
      <trkpt lat="46.23458" lon="4.73054">
        <ele>252</ele>
        <time>2022-05-14T15:28:57.000Z</time>
      </trkpt>
      <trkpt lat="46.23447" lon="4.73045">
        <ele>252</ele>
        <time>2022-05-14T15:28:59.000Z</time>
      </trkpt>
      <trkpt lat="46.2343" lon="4.73034">
        <ele>251.39999389648</ele>
        <time>2022-05-14T15:29:02.000Z</time>
      </trkpt>
      <trkpt lat="46.2335" lon="4.72982">
        <ele>252</ele>
        <time>2022-05-14T15:29:17.000Z</time>
      </trkpt>
      <trkpt lat="46.23279" lon="4.72942">
        <ele>254</ele>
        <time>2022-05-14T15:29:31.000Z</time>
      </trkpt>
      <trkpt lat="46.23191" lon="4.72887">
        <ele>251.19999694824</ele>
        <time>2022-05-14T15:29:48.000Z</time>
      </trkpt>
      <trkpt lat="46.23167" lon="4.72871">
        <ele>250.19999694824</ele>
        <time>2022-05-14T15:29:54.000Z</time>
      </trkpt>
      <trkpt lat="46.23158" lon="4.72888">
        <ele>249.80000305176</ele>
        <time>2022-05-14T15:29:59.000Z</time>
      </trkpt>
      <trkpt lat="46.23144" lon="4.72998">
        <ele>248.39999389648</ele>
        <time>2022-05-14T15:30:11.000Z</time>
      </trkpt>
      <trkpt lat="46.23126" lon="4.73102">
        <ele>245.19999694824</ele>
        <time>2022-05-14T15:30:23.000Z</time>
      </trkpt>
      <trkpt lat="46.2311" lon="4.7311">
        <ele>244.19999694824</ele>
        <time>2022-05-14T15:30:28.000Z</time>
      </trkpt>
      <trkpt lat="46.23015" lon="4.73046">
        <ele>241.60000610352</ele>
        <time>2022-05-14T15:30:44.000Z</time>
      </trkpt>
      <trkpt lat="46.23005" lon="4.73039">
        <ele>241</ele>
        <time>2022-05-14T15:31:03.000Z</time>
      </trkpt>
      <trkpt lat="46.22997" lon="4.73063">
        <ele>240.39999389648</ele>
        <time>2022-05-14T15:31:10.000Z</time>
      </trkpt>
      <trkpt lat="46.22934" lon="4.73169">
        <ele>235.80000305176</ele>
        <time>2022-05-14T15:31:27.000Z</time>
      </trkpt>
      <trkpt lat="46.22877" lon="4.73261">
        <ele>232.60000610352</ele>
        <time>2022-05-14T15:31:40.000Z</time>
      </trkpt>
      <trkpt lat="46.2286" lon="4.73286">
        <ele>231.19999694824</ele>
        <time>2022-05-14T15:31:46.000Z</time>
      </trkpt>
      <trkpt lat="46.22854" lon="4.73283">
        <ele>231</ele>
        <time>2022-05-14T15:31:48.000Z</time>
      </trkpt>
      <trkpt lat="46.22813" lon="4.73236">
        <ele>228.19999694824</ele>
        <time>2022-05-14T15:31:57.000Z</time>
      </trkpt>
      <trkpt lat="46.22786" lon="4.73204">
        <ele>225.60000610352</ele>
        <time>2022-05-14T15:32:02.000Z</time>
      </trkpt>
      <trkpt lat="46.22752" lon="4.73144">
        <ele>223.39999389648</ele>
        <time>2022-05-14T15:32:10.000Z</time>
      </trkpt>
      <trkpt lat="46.22721" lon="4.73076">
        <ele>220.80000305176</ele>
        <time>2022-05-14T15:32:21.000Z</time>
      </trkpt>
      <trkpt lat="46.22718" lon="4.73073">
        <ele>220.60000610352</ele>
        <time>2022-05-14T15:32:27.000Z</time>
      </trkpt>
      <trkpt lat="46.22709" lon="4.7308">
        <ele>220</ele>
        <time>2022-05-14T15:32:32.000Z</time>
      </trkpt>
      <trkpt lat="46.22677" lon="4.73194">
        <ele>219.19999694824</ele>
        <time>2022-05-14T15:32:45.000Z</time>
      </trkpt>
      <trkpt lat="46.22661" lon="4.73276">
        <ele>217</ele>
        <time>2022-05-14T15:32:54.000Z</time>
      </trkpt>
      <trkpt lat="46.22648" lon="4.7335">
        <ele>217.19999694824</ele>
        <time>2022-05-14T15:33:02.000Z</time>
      </trkpt>
      <trkpt lat="46.22645" lon="4.73378">
        <ele>217</ele>
        <time>2022-05-14T15:33:05.000Z</time>
      </trkpt>
      <trkpt lat="46.22652" lon="4.73431">
        <ele>217</ele>
        <time>2022-05-14T15:33:11.000Z</time>
      </trkpt>
      <trkpt lat="46.22697" lon="4.73562">
        <ele>217.39999389648</ele>
        <time>2022-05-14T15:33:28.000Z</time>
      </trkpt>
      <trkpt lat="46.22685" lon="4.736">
        <ele>216.80000305176</ele>
        <time>2022-05-14T15:33:33.000Z</time>
      </trkpt>
      <trkpt lat="46.22677" lon="4.73624">
        <ele>216.39999389648</ele>
        <time>2022-05-14T15:33:36.000Z</time>
      </trkpt>
      <trkpt lat="46.2261" lon="4.73735">
        <ele>218.19999694824</ele>
        <time>2022-05-14T15:33:54.000Z</time>
      </trkpt>
      <trkpt lat="46.22603" lon="4.73747">
        <ele>218.60000610352</ele>
        <time>2022-05-14T15:33:56.000Z</time>
      </trkpt>
      <trkpt lat="46.22596" lon="4.7376">
        <ele>218.80000305176</ele>
        <time>2022-05-14T15:33:58.000Z</time>
      </trkpt>
      <trkpt lat="46.22578" lon="4.73783">
        <ele>218</ele>
        <time>2022-05-14T15:34:02.000Z</time>
      </trkpt>
      <trkpt lat="46.2256" lon="4.73809">
        <ele>217.80000305176</ele>
        <time>2022-05-14T15:34:06.000Z</time>
      </trkpt>
      <trkpt lat="46.2255" lon="4.73829">
        <ele>217.80000305176</ele>
        <time>2022-05-14T15:34:09.000Z</time>
      </trkpt>
      <trkpt lat="46.22549" lon="4.73836">
        <ele>218</ele>
        <time>2022-05-14T15:34:10.000Z</time>
      </trkpt>
      <trkpt lat="46.22548" lon="4.73843">
        <ele>218.19999694824</ele>
        <time>2022-05-14T15:34:11.000Z</time>
      </trkpt>
      <trkpt lat="46.22548" lon="4.7385">
        <ele>218.39999389648</ele>
        <time>2022-05-14T15:34:12.000Z</time>
      </trkpt>
      <trkpt lat="46.22548" lon="4.73857">
        <ele>218.60000610352</ele>
        <time>2022-05-14T15:34:13.000Z</time>
      </trkpt>
      <trkpt lat="46.22541" lon="4.73886">
        <ele>218.80000305176</ele>
        <time>2022-05-14T15:34:17.000Z</time>
      </trkpt>
      <trkpt lat="46.22534" lon="4.739">
        <ele>218.39999389648</ele>
        <time>2022-05-14T15:34:19.000Z</time>
      </trkpt>
      <trkpt lat="46.2246" lon="4.74014">
        <ele>217.80000305176</ele>
        <time>2022-05-14T15:34:37.000Z</time>
      </trkpt>
      <trkpt lat="46.22443" lon="4.74041">
        <ele>217</ele>
        <time>2022-05-14T15:34:41.000Z</time>
      </trkpt>
      <trkpt lat="46.22382" lon="4.7414">
        <ele>215.60000610352</ele>
        <time>2022-05-14T15:34:56.000Z</time>
      </trkpt>
      <trkpt lat="46.22366" lon="4.74165">
        <ele>214.60000610352</ele>
        <time>2022-05-14T15:35:00.000Z</time>
      </trkpt>
      <trkpt lat="46.22353" lon="4.74185">
        <ele>214.39999389648</ele>
        <time>2022-05-14T15:35:04.000Z</time>
      </trkpt>
      <trkpt lat="46.22339" lon="4.74176">
        <ele>212.39999389648</ele>
        <time>2022-05-14T15:35:09.000Z</time>
      </trkpt>
      <trkpt lat="46.22292" lon="4.74114">
        <ele>206.60000610352</ele>
        <time>2022-05-14T15:35:18.000Z</time>
      </trkpt>
      <trkpt lat="46.22266" lon="4.74115">
        <ele>204.80000305176</ele>
        <time>2022-05-14T15:35:23.000Z</time>
      </trkpt>
      <trkpt lat="46.22262" lon="4.7412">
        <ele>204.60000610352</ele>
        <time>2022-05-14T15:35:24.000Z</time>
      </trkpt>
      <trkpt lat="46.22247" lon="4.74137">
        <ele>204.80000305176</ele>
        <time>2022-05-14T15:35:27.000Z</time>
      </trkpt>
      <trkpt lat="46.22243" lon="4.74144">
        <ele>205</ele>
        <time>2022-05-14T15:35:28.000Z</time>
      </trkpt>
      <trkpt lat="46.22229" lon="4.74162">
        <ele>204</ele>
        <time>2022-05-14T15:35:31.000Z</time>
      </trkpt>
      <trkpt lat="46.22207" lon="4.74211">
        <ele>203.80000305176</ele>
        <time>2022-05-14T15:35:38.000Z</time>
      </trkpt>
      <trkpt lat="46.22194" lon="4.74231">
        <ele>203.39999389648</ele>
        <time>2022-05-14T15:35:41.000Z</time>
      </trkpt>
      <trkpt lat="46.22146" lon="4.74332">
        <ele>206.39999389648</ele>
        <time>2022-05-14T15:35:55.000Z</time>
      </trkpt>
      <trkpt lat="46.22148" lon="4.74359">
        <ele>206</ele>
        <time>2022-05-14T15:35:59.000Z</time>
      </trkpt>
      <trkpt lat="46.22157" lon="4.74394">
        <ele>205</ele>
        <time>2022-05-14T15:36:05.000Z</time>
      </trkpt>
      <trkpt lat="46.22145" lon="4.74411">
        <ele>205.60000610352</ele>
        <time>2022-05-14T15:36:08.000Z</time>
      </trkpt>
      <trkpt lat="46.22125" lon="4.74456">
        <ele>206.19999694824</ele>
        <time>2022-05-14T15:36:18.000Z</time>
      </trkpt>
      <trkpt lat="46.22144" lon="4.74514">
        <ele>209.39999389648</ele>
        <time>2022-05-14T15:36:27.000Z</time>
      </trkpt>
      <trkpt lat="46.22143" lon="4.74564">
        <ele>213</ele>
        <time>2022-05-14T15:36:34.000Z</time>
      </trkpt>
      <trkpt lat="46.2215" lon="4.7459">
        <ele>215</ele>
        <time>2022-05-14T15:36:38.000Z</time>
      </trkpt>
      <trkpt lat="46.22161" lon="4.74632">
        <ele>218</ele>
        <time>2022-05-14T15:36:46.000Z</time>
      </trkpt>
      <trkpt lat="46.22155" lon="4.74651">
        <ele>217.80000305176</ele>
        <time>2022-05-14T15:36:49.000Z</time>
      </trkpt>
      <trkpt lat="46.22149" lon="4.74676">
        <ele>218</ele>
        <time>2022-05-14T15:36:54.000Z</time>
      </trkpt>
      <trkpt lat="46.22139" lon="4.7467">
        <ele>216.60000610352</ele>
        <time>2022-05-14T15:36:59.000Z</time>
      </trkpt>
      <trkpt lat="46.22114" lon="4.74629">
        <ele>211.80000305176</ele>
        <time>2022-05-14T15:37:05.000Z</time>
      </trkpt>
      <trkpt lat="46.22087" lon="4.74629">
        <ele>209.19999694824</ele>
        <time>2022-05-14T15:37:11.000Z</time>
      </trkpt>
      <trkpt lat="46.22084" lon="4.74636">
        <ele>208.80000305176</ele>
        <time>2022-05-14T15:37:12.000Z</time>
      </trkpt>
      <trkpt lat="46.22074" lon="4.7466">
        <ele>208.39999389648</ele>
        <time>2022-05-14T15:37:15.000Z</time>
      </trkpt>
      <trkpt lat="46.22054" lon="4.74685">
        <ele>207.80000305176</ele>
        <time>2022-05-14T15:37:19.000Z</time>
      </trkpt>
      <trkpt lat="46.22" lon="4.74765">
        <ele>206.19999694824</ele>
        <time>2022-05-14T15:37:31.000Z</time>
      </trkpt>
      <trkpt lat="46.21952" lon="4.74862">
        <ele>205.39999389648</ele>
        <time>2022-05-14T15:37:44.000Z</time>
      </trkpt>
      <trkpt lat="46.21938" lon="4.74878">
        <ele>205.19999694824</ele>
        <time>2022-05-14T15:37:48.000Z</time>
      </trkpt>
      <trkpt lat="46.2193" lon="4.74885">
        <ele>204.80000305176</ele>
        <time>2022-05-14T15:37:50.000Z</time>
      </trkpt>
      <trkpt lat="46.21914" lon="4.74918">
        <ele>204.60000610352</ele>
        <time>2022-05-14T15:37:57.000Z</time>
      </trkpt>
      <trkpt lat="46.21901" lon="4.74951">
        <ele>203.39999389648</ele>
        <time>2022-05-14T15:38:02.000Z</time>
      </trkpt>
      <trkpt lat="46.21885" lon="4.74983">
        <ele>203.19999694824</ele>
        <time>2022-05-14T15:38:07.000Z</time>
      </trkpt>
      <trkpt lat="46.21845" lon="4.75034">
        <ele>202.39999389648</ele>
        <time>2022-05-14T15:38:16.000Z</time>
      </trkpt>
      <trkpt lat="46.21838" lon="4.75044">
        <ele>202</ele>
        <time>2022-05-14T15:38:18.000Z</time>
      </trkpt>
      <trkpt lat="46.21834" lon="4.75044">
        <ele>201.60000610352</ele>
        <time>2022-05-14T15:38:19.000Z</time>
      </trkpt>
      <trkpt lat="46.21831" lon="4.75042">
        <ele>201.39999389648</ele>
        <time>2022-05-14T15:38:20.000Z</time>
      </trkpt>
      <trkpt lat="46.21827" lon="4.75039">
        <ele>201</ele>
        <time>2022-05-14T15:38:21.000Z</time>
      </trkpt>
      <trkpt lat="46.21797" lon="4.75018">
        <ele>200</ele>
        <time>2022-05-14T15:38:27.000Z</time>
      </trkpt>
      <trkpt lat="46.21777" lon="4.75005">
        <ele>200</ele>
        <time>2022-05-14T15:38:31.000Z</time>
      </trkpt>
      <trkpt lat="46.21759" lon="4.74998">
        <ele>199.60000610352</ele>
        <time>2022-05-14T15:38:37.000Z</time>
      </trkpt>
      <trkpt lat="46.21753" lon="4.7501">
        <ele>199.19999694824</ele>
        <time>2022-05-14T15:38:39.000Z</time>
      </trkpt>
      <trkpt lat="46.2172" lon="4.75084">
        <ele>197.19999694824</ele>
        <time>2022-05-14T15:38:49.000Z</time>
      </trkpt>
      <trkpt lat="46.21698" lon="4.75129">
        <ele>197.80000305176</ele>
        <time>2022-05-14T15:38:55.000Z</time>
      </trkpt>
      <trkpt lat="46.21659" lon="4.75245">
        <ele>198.60000610352</ele>
        <time>2022-05-14T15:39:09.000Z</time>
      </trkpt>
      <trkpt lat="46.21627" lon="4.75287">
        <ele>197</ele>
        <time>2022-05-14T15:39:16.000Z</time>
      </trkpt>
      <trkpt lat="46.21588" lon="4.75334">
        <ele>198</ele>
        <time>2022-05-14T15:39:24.000Z</time>
      </trkpt>
      <trkpt lat="46.2157" lon="4.75369">
        <ele>197.39999389648</ele>
        <time>2022-05-14T15:39:29.000Z</time>
      </trkpt>
      <trkpt lat="46.21555" lon="4.75444">
        <ele>197.19999694824</ele>
        <time>2022-05-14T15:39:38.000Z</time>
      </trkpt>
      <trkpt lat="46.21548" lon="4.75486">
        <ele>198.19999694824</ele>
        <time>2022-05-14T15:39:43.000Z</time>
      </trkpt>
      <trkpt lat="46.21538" lon="4.75536">
        <ele>199</ele>
        <time>2022-05-14T15:39:49.000Z</time>
      </trkpt>
      <trkpt lat="46.21531" lon="4.75558">
        <ele>198.19999694824</ele>
        <time>2022-05-14T15:39:52.000Z</time>
      </trkpt>
      <trkpt lat="46.21515" lon="4.75582">
        <ele>196.39999389648</ele>
        <time>2022-05-14T15:39:56.000Z</time>
      </trkpt>
      <trkpt lat="46.2149" lon="4.75617">
        <ele>194.80000305176</ele>
        <time>2022-05-14T15:40:04.000Z</time>
      </trkpt>
      <trkpt lat="46.21461" lon="4.75586">
        <ele>192.80000305176</ele>
        <time>2022-05-14T15:40:13.000Z</time>
      </trkpt>
      <trkpt lat="46.2141" lon="4.75528">
        <ele>190</ele>
        <time>2022-05-14T15:40:26.000Z</time>
      </trkpt>
      <trkpt lat="46.21409" lon="4.75525">
        <ele>190</ele>
        <time>2022-05-14T15:40:27.000Z</time>
      </trkpt>
      <trkpt lat="46.21411" lon="4.75515">
        <ele>190</ele>
        <time>2022-05-14T15:40:30.000Z</time>
      </trkpt>
      <trkpt lat="46.21425" lon="4.75493">
        <ele>192</ele>
        <time>2022-05-14T15:40:36.000Z</time>
      </trkpt>
      <trkpt lat="46.21426" lon="4.75493">
        <ele>192</ele>
        <time>2022-05-14T15:40:37.000Z</time>
      </trkpt>
      <trkpt lat="46.21427" lon="4.75492">
        <ele>192</ele>
        <time>2022-05-14T15:40:42.000Z</time>
      </trkpt>
    </trkseg>
  </trk>
</gpx>